<?xml version="1.0" encoding="UTF-8" standalone="no" ?>
<gpx xmlns="http://www.topografix.com/GPX/1/1" xmlns:xsi="http://www.w3.org/2001/XMLSchema-instance" xsi:schemaLocation="http://www.topografix.com/GPX/1/1 http://www.topografix.com/GPX/1/1/gpx.xsd" version="1.1" creator="VisuGPX - https://www.visugpx.com">
  <metadata>
    <name>2021-01-07-Alpe di Rittana valle Stura</name>
  </metadata>
  <trk>
    <name><![CDATA[2021-01-07 14:31:13]]></name>
    <trkseg>
      <trkpt lat="44.36309" lon="7.35564">
        <ele>1118.15</ele>
        <time>2021-01-07T07:55:21Z</time>
      </trkpt>
      <trkpt lat="44.36308" lon="7.35561">
        <ele>1112.38</ele>
        <time>2021-01-07T07:55:40Z</time>
      </trkpt>
      <trkpt lat="44.36309" lon="7.35552">
        <ele>1108.06</ele>
        <time>2021-01-07T07:56:10Z</time>
      </trkpt>
      <trkpt lat="44.3631" lon="7.35551">
        <ele>1106.13</ele>
        <time>2021-01-07T07:56:39Z</time>
      </trkpt>
      <trkpt lat="44.3631" lon="7.35555">
        <ele>1111.42</ele>
        <time>2021-01-07T07:57:12Z</time>
      </trkpt>
      <trkpt lat="44.36307" lon="7.35554">
        <ele>1114.79</ele>
        <time>2021-01-07T07:57:50Z</time>
      </trkpt>
      <trkpt lat="44.36311" lon="7.35553">
        <ele>1115.27</ele>
        <time>2021-01-07T07:58:27Z</time>
      </trkpt>
      <trkpt lat="44.36311" lon="7.35554">
        <ele>1117.67</ele>
        <time>2021-01-07T07:58:37Z</time>
      </trkpt>
      <trkpt lat="44.3631" lon="7.35552">
        <ele>1119.59</ele>
        <time>2021-01-07T07:58:47Z</time>
      </trkpt>
      <trkpt lat="44.36311" lon="7.35553">
        <ele>1120.07</ele>
        <time>2021-01-07T07:58:49Z</time>
      </trkpt>
      <trkpt lat="44.36322" lon="7.35562">
        <ele>1121.52</ele>
        <time>2021-01-07T07:59:05Z</time>
      </trkpt>
      <trkpt lat="44.36322" lon="7.35563">
        <ele>1121.52</ele>
        <time>2021-01-07T07:59:19Z</time>
      </trkpt>
      <trkpt lat="44.36321" lon="7.35563">
        <ele>1121.03</ele>
        <time>2021-01-07T07:59:39Z</time>
      </trkpt>
      <trkpt lat="44.36323" lon="7.3556">
        <ele>1119.11</ele>
        <time>2021-01-07T07:59:52Z</time>
      </trkpt>
      <trkpt lat="44.36322" lon="7.35559">
        <ele>1119.59</ele>
        <time>2021-01-07T08:00:06Z</time>
      </trkpt>
      <trkpt lat="44.36322" lon="7.35557">
        <ele>1121.03</ele>
        <time>2021-01-07T08:00:24Z</time>
      </trkpt>
      <trkpt lat="44.36322" lon="7.35559">
        <ele>1120.07</ele>
        <time>2021-01-07T08:00:37Z</time>
      </trkpt>
      <trkpt lat="44.36321" lon="7.35558">
        <ele>1122.96</ele>
        <time>2021-01-07T08:00:53Z</time>
      </trkpt>
      <trkpt lat="44.36321" lon="7.35554">
        <ele>1122.48</ele>
        <time>2021-01-07T08:01:08Z</time>
      </trkpt>
      <trkpt lat="44.36319" lon="7.35545">
        <ele>1122.48</ele>
        <time>2021-01-07T08:01:20Z</time>
      </trkpt>
      <trkpt lat="44.36318" lon="7.35539">
        <ele>1123.44</ele>
        <time>2021-01-07T08:01:31Z</time>
      </trkpt>
      <trkpt lat="44.36316" lon="7.35527">
        <ele>1122.96</ele>
        <time>2021-01-07T08:01:45Z</time>
      </trkpt>
      <trkpt lat="44.36315" lon="7.3552">
        <ele>1124.4</ele>
        <time>2021-01-07T08:01:53Z</time>
      </trkpt>
      <trkpt lat="44.36314" lon="7.35503">
        <ele>1125.84</ele>
        <time>2021-01-07T08:02:07Z</time>
      </trkpt>
      <trkpt lat="44.36314" lon="7.35491">
        <ele>1126.8</ele>
        <time>2021-01-07T08:02:19Z</time>
      </trkpt>
      <trkpt lat="44.36317" lon="7.35477">
        <ele>1128.73</ele>
        <time>2021-01-07T08:02:34Z</time>
      </trkpt>
      <trkpt lat="44.36319" lon="7.3547">
        <ele>1128.73</ele>
        <time>2021-01-07T08:02:41Z</time>
      </trkpt>
      <trkpt lat="44.36323" lon="7.35459">
        <ele>1130.65</ele>
        <time>2021-01-07T08:02:54Z</time>
      </trkpt>
      <trkpt lat="44.36327" lon="7.35448">
        <ele>1131.61</ele>
        <time>2021-01-07T08:03:06Z</time>
      </trkpt>
      <trkpt lat="44.36331" lon="7.35438">
        <ele>1134.01</ele>
        <time>2021-01-07T08:03:19Z</time>
      </trkpt>
      <trkpt lat="44.36335" lon="7.35428">
        <ele>1135.94</ele>
        <time>2021-01-07T08:03:32Z</time>
      </trkpt>
      <trkpt lat="44.36341" lon="7.35416">
        <ele>1138.34</ele>
        <time>2021-01-07T08:03:46Z</time>
      </trkpt>
      <trkpt lat="44.36346" lon="7.35406">
        <ele>1140.74</ele>
        <time>2021-01-07T08:03:58Z</time>
      </trkpt>
      <trkpt lat="44.36353" lon="7.35399">
        <ele>1143.14</ele>
        <time>2021-01-07T08:04:10Z</time>
      </trkpt>
      <trkpt lat="44.36356" lon="7.35407">
        <ele>1144.59</ele>
        <time>2021-01-07T08:04:20Z</time>
      </trkpt>
      <trkpt lat="44.36352" lon="7.35417">
        <ele>1146.99</ele>
        <time>2021-01-07T08:04:31Z</time>
      </trkpt>
      <trkpt lat="44.36349" lon="7.35434">
        <ele>1148.91</ele>
        <time>2021-01-07T08:04:44Z</time>
      </trkpt>
      <trkpt lat="44.36349" lon="7.35437">
        <ele>1148.43</ele>
        <time>2021-01-07T08:04:46Z</time>
      </trkpt>
      <trkpt lat="44.36348" lon="7.35461">
        <ele>1147.95</ele>
        <time>2021-01-07T08:05:00Z</time>
      </trkpt>
      <trkpt lat="44.36346" lon="7.35478">
        <ele>1146.51</ele>
        <time>2021-01-07T08:05:09Z</time>
      </trkpt>
      <trkpt lat="44.36345" lon="7.35501">
        <ele>1147.47</ele>
        <time>2021-01-07T08:05:24Z</time>
      </trkpt>
      <trkpt lat="44.36345" lon="7.35503">
        <ele>1146.99</ele>
        <time>2021-01-07T08:05:26Z</time>
      </trkpt>
      <trkpt lat="44.36349" lon="7.35517">
        <ele>1146.51</ele>
        <time>2021-01-07T08:05:37Z</time>
      </trkpt>
      <trkpt lat="44.36356" lon="7.35538">
        <ele>1146.03</ele>
        <time>2021-01-07T08:05:53Z</time>
      </trkpt>
      <trkpt lat="44.36358" lon="7.35542">
        <ele>1146.03</ele>
        <time>2021-01-07T08:05:57Z</time>
      </trkpt>
      <trkpt lat="44.3636" lon="7.35547">
        <ele>1146.51</ele>
        <time>2021-01-07T08:06:02Z</time>
      </trkpt>
      <trkpt lat="44.36367" lon="7.35561">
        <ele>1147.95</ele>
        <time>2021-01-07T08:06:16Z</time>
      </trkpt>
      <trkpt lat="44.36373" lon="7.35574">
        <ele>1149.39</ele>
        <time>2021-01-07T08:06:30Z</time>
      </trkpt>
      <trkpt lat="44.3638" lon="7.35584">
        <ele>1150.35</ele>
        <time>2021-01-07T08:06:44Z</time>
      </trkpt>
      <trkpt lat="44.36387" lon="7.35594">
        <ele>1149.87</ele>
        <time>2021-01-07T08:06:58Z</time>
      </trkpt>
      <trkpt lat="44.36394" lon="7.35603">
        <ele>1150.35</ele>
        <time>2021-01-07T08:07:11Z</time>
      </trkpt>
      <trkpt lat="44.36401" lon="7.35613">
        <ele>1152.28</ele>
        <time>2021-01-07T08:07:26Z</time>
      </trkpt>
      <trkpt lat="44.36406" lon="7.35617">
        <ele>1153.24</ele>
        <time>2021-01-07T08:07:34Z</time>
      </trkpt>
      <trkpt lat="44.36411" lon="7.35619">
        <ele>1154.68</ele>
        <time>2021-01-07T08:07:41Z</time>
      </trkpt>
      <trkpt lat="44.36417" lon="7.35618">
        <ele>1156.12</ele>
        <time>2021-01-07T08:07:47Z</time>
      </trkpt>
      <trkpt lat="44.36419" lon="7.35608">
        <ele>1156.12</ele>
        <time>2021-01-07T08:07:58Z</time>
      </trkpt>
      <trkpt lat="44.36417" lon="7.35595">
        <ele>1157.08</ele>
        <time>2021-01-07T08:08:12Z</time>
      </trkpt>
      <trkpt lat="44.36414" lon="7.3558">
        <ele>1159.01</ele>
        <time>2021-01-07T08:08:25Z</time>
      </trkpt>
      <trkpt lat="44.36414" lon="7.35565">
        <ele>1160.45</ele>
        <time>2021-01-07T08:08:39Z</time>
      </trkpt>
      <trkpt lat="44.36416" lon="7.3555">
        <ele>1161.89</ele>
        <time>2021-01-07T08:08:54Z</time>
      </trkpt>
      <trkpt lat="44.36417" lon="7.35534">
        <ele>1163.33</ele>
        <time>2021-01-07T08:09:09Z</time>
      </trkpt>
      <trkpt lat="44.36414" lon="7.35516">
        <ele>1166.7</ele>
        <time>2021-01-07T08:09:25Z</time>
      </trkpt>
      <trkpt lat="44.36412" lon="7.35504">
        <ele>1167.66</ele>
        <time>2021-01-07T08:09:35Z</time>
      </trkpt>
      <trkpt lat="44.36409" lon="7.35495">
        <ele>1168.14</ele>
        <time>2021-01-07T08:09:48Z</time>
      </trkpt>
      <trkpt lat="44.36408" lon="7.35484">
        <ele>1169.1</ele>
        <time>2021-01-07T08:09:57Z</time>
      </trkpt>
      <trkpt lat="44.36408" lon="7.35481">
        <ele>1170.06</ele>
        <time>2021-01-07T08:10:01Z</time>
      </trkpt>
      <trkpt lat="44.3641" lon="7.35466">
        <ele>1170.54</ele>
        <time>2021-01-07T08:10:15Z</time>
      </trkpt>
      <trkpt lat="44.36415" lon="7.35462">
        <ele>1172.95</ele>
        <time>2021-01-07T08:10:23Z</time>
      </trkpt>
      <trkpt lat="44.36423" lon="7.35464">
        <ele>1174.39</ele>
        <time>2021-01-07T08:10:34Z</time>
      </trkpt>
      <trkpt lat="44.36429" lon="7.35475">
        <ele>1177.75</ele>
        <time>2021-01-07T08:10:48Z</time>
      </trkpt>
      <trkpt lat="44.36436" lon="7.35487">
        <ele>1181.6</ele>
        <time>2021-01-07T08:11:03Z</time>
      </trkpt>
      <trkpt lat="44.36441" lon="7.35499">
        <ele>1184.48</ele>
        <time>2021-01-07T08:11:17Z</time>
      </trkpt>
      <trkpt lat="44.36446" lon="7.35515">
        <ele>1184.48</ele>
        <time>2021-01-07T08:11:32Z</time>
      </trkpt>
      <trkpt lat="44.36452" lon="7.35529">
        <ele>1186.88</ele>
        <time>2021-01-07T08:11:47Z</time>
      </trkpt>
      <trkpt lat="44.3646" lon="7.35539">
        <ele>1187.85</ele>
        <time>2021-01-07T08:12:01Z</time>
      </trkpt>
      <trkpt lat="44.36472" lon="7.35545">
        <ele>1188.81</ele>
        <time>2021-01-07T08:12:17Z</time>
      </trkpt>
      <trkpt lat="44.36477" lon="7.35535">
        <ele>1191.21</ele>
        <time>2021-01-07T08:12:28Z</time>
      </trkpt>
      <trkpt lat="44.36478" lon="7.35523">
        <ele>1193.13</ele>
        <time>2021-01-07T08:12:43Z</time>
      </trkpt>
      <trkpt lat="44.36483" lon="7.35513">
        <ele>1191.21</ele>
        <time>2021-01-07T08:12:57Z</time>
      </trkpt>
      <trkpt lat="44.36484" lon="7.35504">
        <ele>1191.69</ele>
        <time>2021-01-07T08:13:09Z</time>
      </trkpt>
      <trkpt lat="44.36484" lon="7.3549">
        <ele>1192.17</ele>
        <time>2021-01-07T08:13:23Z</time>
      </trkpt>
      <trkpt lat="44.36485" lon="7.35478">
        <ele>1193.13</ele>
        <time>2021-01-07T08:13:35Z</time>
      </trkpt>
      <trkpt lat="44.36487" lon="7.35464">
        <ele>1194.58</ele>
        <time>2021-01-07T08:13:49Z</time>
      </trkpt>
      <trkpt lat="44.36489" lon="7.35459">
        <ele>1195.54</ele>
        <time>2021-01-07T08:13:56Z</time>
      </trkpt>
      <trkpt lat="44.36494" lon="7.35448">
        <ele>1196.02</ele>
        <time>2021-01-07T08:14:09Z</time>
      </trkpt>
      <trkpt lat="44.36499" lon="7.35436">
        <ele>1196.5</ele>
        <time>2021-01-07T08:14:23Z</time>
      </trkpt>
      <trkpt lat="44.36501" lon="7.35429">
        <ele>1198.9</ele>
        <time>2021-01-07T08:14:34Z</time>
      </trkpt>
      <trkpt lat="44.36502" lon="7.35421">
        <ele>1201.3</ele>
        <time>2021-01-07T08:14:45Z</time>
      </trkpt>
      <trkpt lat="44.36503" lon="7.35418">
        <ele>1202.27</ele>
        <time>2021-01-07T08:14:55Z</time>
      </trkpt>
      <trkpt lat="44.36505" lon="7.35416">
        <ele>1201.79</ele>
        <time>2021-01-07T08:15:09Z</time>
      </trkpt>
      <trkpt lat="44.36508" lon="7.3541">
        <ele>1203.23</ele>
        <time>2021-01-07T08:15:23Z</time>
      </trkpt>
      <trkpt lat="44.36511" lon="7.35414">
        <ele>1205.63</ele>
        <time>2021-01-07T08:15:34Z</time>
      </trkpt>
      <trkpt lat="44.36515" lon="7.35425">
        <ele>1208.51</ele>
        <time>2021-01-07T08:15:48Z</time>
      </trkpt>
      <trkpt lat="44.36517" lon="7.3543">
        <ele>1210.44</ele>
        <time>2021-01-07T08:15:54Z</time>
      </trkpt>
      <trkpt lat="44.36521" lon="7.35427">
        <ele>1211.88</ele>
        <time>2021-01-07T08:16:07Z</time>
      </trkpt>
      <trkpt lat="44.36523" lon="7.35415">
        <ele>1211.88</ele>
        <time>2021-01-07T08:16:21Z</time>
      </trkpt>
      <trkpt lat="44.36527" lon="7.35404">
        <ele>1214.28</ele>
        <time>2021-01-07T08:16:35Z</time>
      </trkpt>
      <trkpt lat="44.36533" lon="7.35392">
        <ele>1216.69</ele>
        <time>2021-01-07T08:16:49Z</time>
      </trkpt>
      <trkpt lat="44.36538" lon="7.35388">
        <ele>1220.53</ele>
        <time>2021-01-07T08:17:01Z</time>
      </trkpt>
      <trkpt lat="44.36542" lon="7.35396">
        <ele>1224.38</ele>
        <time>2021-01-07T08:17:13Z</time>
      </trkpt>
      <trkpt lat="44.36549" lon="7.35398">
        <ele>1225.82</ele>
        <time>2021-01-07T08:17:26Z</time>
      </trkpt>
      <trkpt lat="44.36555" lon="7.35395">
        <ele>1227.26</ele>
        <time>2021-01-07T08:17:38Z</time>
      </trkpt>
      <trkpt lat="44.36556" lon="7.3539">
        <ele>1230.62</ele>
        <time>2021-01-07T08:18:07Z</time>
      </trkpt>
      <trkpt lat="44.36553" lon="7.35395">
        <ele>1232.07</ele>
        <time>2021-01-07T08:18:41Z</time>
      </trkpt>
      <trkpt lat="44.36553" lon="7.35394">
        <ele>1231.11</ele>
        <time>2021-01-07T08:19:09Z</time>
      </trkpt>
      <trkpt lat="44.36554" lon="7.35393">
        <ele>1232.07</ele>
        <time>2021-01-07T08:19:28Z</time>
      </trkpt>
      <trkpt lat="44.36553" lon="7.35393">
        <ele>1230.14</ele>
        <time>2021-01-07T08:19:42Z</time>
      </trkpt>
      <trkpt lat="44.36554" lon="7.35393">
        <ele>1232.07</ele>
        <time>2021-01-07T08:20:02Z</time>
      </trkpt>
      <trkpt lat="44.36556" lon="7.35394">
        <ele>1227.26</ele>
        <time>2021-01-07T08:20:21Z</time>
      </trkpt>
      <trkpt lat="44.36568" lon="7.35391">
        <ele>1228.22</ele>
        <time>2021-01-07T08:20:35Z</time>
      </trkpt>
      <trkpt lat="44.36573" lon="7.35391">
        <ele>1229.66</ele>
        <time>2021-01-07T08:20:49Z</time>
      </trkpt>
      <trkpt lat="44.36577" lon="7.35393">
        <ele>1229.66</ele>
        <time>2021-01-07T08:21:02Z</time>
      </trkpt>
      <trkpt lat="44.36579" lon="7.35394">
        <ele>1230.14</ele>
        <time>2021-01-07T08:21:15Z</time>
      </trkpt>
      <trkpt lat="44.36585" lon="7.35397">
        <ele>1232.55</ele>
        <time>2021-01-07T08:21:27Z</time>
      </trkpt>
      <trkpt lat="44.36584" lon="7.35392">
        <ele>1231.11</ele>
        <time>2021-01-07T08:21:42Z</time>
      </trkpt>
      <trkpt lat="44.36584" lon="7.35378">
        <ele>1232.55</ele>
        <time>2021-01-07T08:21:54Z</time>
      </trkpt>
      <trkpt lat="44.36583" lon="7.35361">
        <ele>1233.51</ele>
        <time>2021-01-07T08:22:09Z</time>
      </trkpt>
      <trkpt lat="44.36582" lon="7.35349">
        <ele>1234.95</ele>
        <time>2021-01-07T08:22:23Z</time>
      </trkpt>
      <trkpt lat="44.36587" lon="7.3534">
        <ele>1236.87</ele>
        <time>2021-01-07T08:22:36Z</time>
      </trkpt>
      <trkpt lat="44.36589" lon="7.35339">
        <ele>1237.35</ele>
        <time>2021-01-07T08:22:39Z</time>
      </trkpt>
      <trkpt lat="44.36596" lon="7.35349">
        <ele>1241.68</ele>
        <time>2021-01-07T08:22:54Z</time>
      </trkpt>
      <trkpt lat="44.36597" lon="7.3535">
        <ele>1242.64</ele>
        <time>2021-01-07T08:22:56Z</time>
      </trkpt>
      <trkpt lat="44.36603" lon="7.35357">
        <ele>1246.01</ele>
        <time>2021-01-07T08:23:06Z</time>
      </trkpt>
      <trkpt lat="44.36608" lon="7.35363">
        <ele>1247.93</ele>
        <time>2021-01-07T08:23:19Z</time>
      </trkpt>
      <trkpt lat="44.36617" lon="7.35369">
        <ele>1247.93</ele>
        <time>2021-01-07T08:23:31Z</time>
      </trkpt>
      <trkpt lat="44.36624" lon="7.35368">
        <ele>1247.45</ele>
        <time>2021-01-07T08:23:41Z</time>
      </trkpt>
      <trkpt lat="44.36626" lon="7.35365">
        <ele>1246.97</ele>
        <time>2021-01-07T08:23:44Z</time>
      </trkpt>
      <trkpt lat="44.3663" lon="7.3535">
        <ele>1245.04</ele>
        <time>2021-01-07T08:23:59Z</time>
      </trkpt>
      <trkpt lat="44.36632" lon="7.35338">
        <ele>1244.56</ele>
        <time>2021-01-07T08:24:11Z</time>
      </trkpt>
      <trkpt lat="44.36634" lon="7.35323">
        <ele>1245.53</ele>
        <time>2021-01-07T08:24:24Z</time>
      </trkpt>
      <trkpt lat="44.36636" lon="7.3531">
        <ele>1247.45</ele>
        <time>2021-01-07T08:24:36Z</time>
      </trkpt>
      <trkpt lat="44.36639" lon="7.35297">
        <ele>1248.41</ele>
        <time>2021-01-07T08:24:49Z</time>
      </trkpt>
      <trkpt lat="44.36642" lon="7.35283">
        <ele>1249.37</ele>
        <time>2021-01-07T08:25:01Z</time>
      </trkpt>
      <trkpt lat="44.36645" lon="7.35271">
        <ele>1250.33</ele>
        <time>2021-01-07T08:25:14Z</time>
      </trkpt>
      <trkpt lat="44.36646" lon="7.35259">
        <ele>1252.25</ele>
        <time>2021-01-07T08:25:28Z</time>
      </trkpt>
      <trkpt lat="44.36651" lon="7.35241">
        <ele>1254.66</ele>
        <time>2021-01-07T08:25:44Z</time>
      </trkpt>
      <trkpt lat="44.36655" lon="7.35228">
        <ele>1255.62</ele>
        <time>2021-01-07T08:26:00Z</time>
      </trkpt>
      <trkpt lat="44.36658" lon="7.35214">
        <ele>1257.54</ele>
        <time>2021-01-07T08:26:16Z</time>
      </trkpt>
      <trkpt lat="44.3666" lon="7.3521">
        <ele>1260.43</ele>
        <time>2021-01-07T08:26:30Z</time>
      </trkpt>
      <trkpt lat="44.36661" lon="7.35206">
        <ele>1261.87</ele>
        <time>2021-01-07T08:27:04Z</time>
      </trkpt>
      <trkpt lat="44.36667" lon="7.352">
        <ele>1264.75</ele>
        <time>2021-01-07T08:27:15Z</time>
      </trkpt>
      <trkpt lat="44.36674" lon="7.35193">
        <ele>1265.71</ele>
        <time>2021-01-07T08:27:29Z</time>
      </trkpt>
      <trkpt lat="44.3668" lon="7.35184">
        <ele>1268.12</ele>
        <time>2021-01-07T08:27:42Z</time>
      </trkpt>
      <trkpt lat="44.36681" lon="7.35174">
        <ele>1269.08</ele>
        <time>2021-01-07T08:27:56Z</time>
      </trkpt>
      <trkpt lat="44.36686" lon="7.35163">
        <ele>1269.08</ele>
        <time>2021-01-07T08:28:11Z</time>
      </trkpt>
      <trkpt lat="44.36687" lon="7.35152">
        <ele>1271.48</ele>
        <time>2021-01-07T08:28:26Z</time>
      </trkpt>
      <trkpt lat="44.3669" lon="7.35139">
        <ele>1271.96</ele>
        <time>2021-01-07T08:28:38Z</time>
      </trkpt>
      <trkpt lat="44.36691" lon="7.35131">
        <ele>1272.92</ele>
        <time>2021-01-07T08:28:50Z</time>
      </trkpt>
      <trkpt lat="44.36692" lon="7.35123">
        <ele>1272.92</ele>
        <time>2021-01-07T08:29:03Z</time>
      </trkpt>
      <trkpt lat="44.36694" lon="7.35112">
        <ele>1275.33</ele>
        <time>2021-01-07T08:29:19Z</time>
      </trkpt>
      <trkpt lat="44.36695" lon="7.35103">
        <ele>1278.21</ele>
        <time>2021-01-07T08:29:37Z</time>
      </trkpt>
      <trkpt lat="44.36697" lon="7.35091">
        <ele>1283.98</ele>
        <time>2021-01-07T08:29:56Z</time>
      </trkpt>
      <trkpt lat="44.36698" lon="7.35079">
        <ele>1288.78</ele>
        <time>2021-01-07T08:30:10Z</time>
      </trkpt>
      <trkpt lat="44.36695" lon="7.35068">
        <ele>1290.23</ele>
        <time>2021-01-07T08:30:29Z</time>
      </trkpt>
      <trkpt lat="44.36692" lon="7.35055">
        <ele>1289.75</ele>
        <time>2021-01-07T08:30:46Z</time>
      </trkpt>
      <trkpt lat="44.36689" lon="7.3504">
        <ele>1292.15</ele>
        <time>2021-01-07T08:31:02Z</time>
      </trkpt>
      <trkpt lat="44.36688" lon="7.35028">
        <ele>1291.67</ele>
        <time>2021-01-07T08:31:18Z</time>
      </trkpt>
      <trkpt lat="44.36691" lon="7.35021">
        <ele>1293.59</ele>
        <time>2021-01-07T08:31:33Z</time>
      </trkpt>
      <trkpt lat="44.36697" lon="7.35015">
        <ele>1295.51</ele>
        <time>2021-01-07T08:31:45Z</time>
      </trkpt>
      <trkpt lat="44.36698" lon="7.35005">
        <ele>1297.92</ele>
        <time>2021-01-07T08:32:00Z</time>
      </trkpt>
      <trkpt lat="44.36696" lon="7.34996">
        <ele>1299.36</ele>
        <time>2021-01-07T08:32:15Z</time>
      </trkpt>
      <trkpt lat="44.36698" lon="7.34977">
        <ele>1300.8</ele>
        <time>2021-01-07T08:32:34Z</time>
      </trkpt>
      <trkpt lat="44.36695" lon="7.34963">
        <ele>1302.72</ele>
        <time>2021-01-07T08:32:50Z</time>
      </trkpt>
      <trkpt lat="44.36693" lon="7.34954">
        <ele>1305.13</ele>
        <time>2021-01-07T08:33:02Z</time>
      </trkpt>
      <trkpt lat="44.3669" lon="7.34943">
        <ele>1307.53</ele>
        <time>2021-01-07T08:33:17Z</time>
      </trkpt>
      <trkpt lat="44.36684" lon="7.34937">
        <ele>1306.57</ele>
        <time>2021-01-07T08:33:31Z</time>
      </trkpt>
      <trkpt lat="44.36679" lon="7.34933">
        <ele>1307.05</ele>
        <time>2021-01-07T08:33:44Z</time>
      </trkpt>
      <trkpt lat="44.36679" lon="7.34927">
        <ele>1308.01</ele>
        <time>2021-01-07T08:33:59Z</time>
      </trkpt>
      <trkpt lat="44.36682" lon="7.34913">
        <ele>1310.41</ele>
        <time>2021-01-07T08:34:17Z</time>
      </trkpt>
      <trkpt lat="44.36682" lon="7.34904">
        <ele>1312.34</ele>
        <time>2021-01-07T08:34:31Z</time>
      </trkpt>
      <trkpt lat="44.36678" lon="7.34885">
        <ele>1315.22</ele>
        <time>2021-01-07T08:34:49Z</time>
      </trkpt>
      <trkpt lat="44.36679" lon="7.34868">
        <ele>1318.1</ele>
        <time>2021-01-07T08:35:06Z</time>
      </trkpt>
      <trkpt lat="44.3668" lon="7.34854">
        <ele>1319.07</ele>
        <time>2021-01-07T08:35:20Z</time>
      </trkpt>
      <trkpt lat="44.36682" lon="7.3484">
        <ele>1320.03</ele>
        <time>2021-01-07T08:35:35Z</time>
      </trkpt>
      <trkpt lat="44.36686" lon="7.34823">
        <ele>1320.03</ele>
        <time>2021-01-07T08:35:51Z</time>
      </trkpt>
      <trkpt lat="44.36687" lon="7.34809">
        <ele>1320.03</ele>
        <time>2021-01-07T08:36:09Z</time>
      </trkpt>
      <trkpt lat="44.36689" lon="7.34796">
        <ele>1321.47</ele>
        <time>2021-01-07T08:36:23Z</time>
      </trkpt>
      <trkpt lat="44.36693" lon="7.34787">
        <ele>1321.95</ele>
        <time>2021-01-07T08:36:37Z</time>
      </trkpt>
      <trkpt lat="44.36698" lon="7.34772">
        <ele>1322.43</ele>
        <time>2021-01-07T08:36:52Z</time>
      </trkpt>
      <trkpt lat="44.36703" lon="7.34758">
        <ele>1324.83</ele>
        <time>2021-01-07T08:37:09Z</time>
      </trkpt>
      <trkpt lat="44.36704" lon="7.34749">
        <ele>1327.72</ele>
        <time>2021-01-07T08:37:22Z</time>
      </trkpt>
      <trkpt lat="44.36706" lon="7.34738">
        <ele>1328.2</ele>
        <time>2021-01-07T08:37:38Z</time>
      </trkpt>
      <trkpt lat="44.36707" lon="7.34731">
        <ele>1330.12</ele>
        <time>2021-01-07T08:37:50Z</time>
      </trkpt>
      <trkpt lat="44.36708" lon="7.34722">
        <ele>1332.52</ele>
        <time>2021-01-07T08:38:09Z</time>
      </trkpt>
      <trkpt lat="44.36713" lon="7.34713">
        <ele>1335.41</ele>
        <time>2021-01-07T08:38:28Z</time>
      </trkpt>
      <trkpt lat="44.36713" lon="7.34711">
        <ele>1337.33</ele>
        <time>2021-01-07T08:38:40Z</time>
      </trkpt>
      <trkpt lat="44.36708" lon="7.34704">
        <ele>1337.81</ele>
        <time>2021-01-07T08:38:54Z</time>
      </trkpt>
      <trkpt lat="44.36712" lon="7.34702">
        <ele>1339.73</ele>
        <time>2021-01-07T08:39:06Z</time>
      </trkpt>
      <trkpt lat="44.36721" lon="7.34693">
        <ele>1342.14</ele>
        <time>2021-01-07T08:39:20Z</time>
      </trkpt>
      <trkpt lat="44.36721" lon="7.34683">
        <ele>1345.5</ele>
        <time>2021-01-07T08:39:36Z</time>
      </trkpt>
      <trkpt lat="44.3672" lon="7.34669">
        <ele>1349.35</ele>
        <time>2021-01-07T08:39:56Z</time>
      </trkpt>
      <trkpt lat="44.36715" lon="7.3466">
        <ele>1351.27</ele>
        <time>2021-01-07T08:40:10Z</time>
      </trkpt>
      <trkpt lat="44.36712" lon="7.34652">
        <ele>1352.71</ele>
        <time>2021-01-07T08:40:25Z</time>
      </trkpt>
      <trkpt lat="44.36709" lon="7.34638">
        <ele>1353.19</ele>
        <time>2021-01-07T08:40:42Z</time>
      </trkpt>
      <trkpt lat="44.36712" lon="7.34629">
        <ele>1355.12</ele>
        <time>2021-01-07T08:40:57Z</time>
      </trkpt>
      <trkpt lat="44.36707" lon="7.34616">
        <ele>1357.04</ele>
        <time>2021-01-07T08:41:10Z</time>
      </trkpt>
      <trkpt lat="44.36706" lon="7.34613">
        <ele>1360.4</ele>
        <time>2021-01-07T08:41:25Z</time>
      </trkpt>
      <trkpt lat="44.36706" lon="7.34609">
        <ele>1364.25</ele>
        <time>2021-01-07T08:41:42Z</time>
      </trkpt>
      <trkpt lat="44.36707" lon="7.34607">
        <ele>1367.61</ele>
        <time>2021-01-07T08:42:06Z</time>
      </trkpt>
      <trkpt lat="44.36705" lon="7.34607">
        <ele>1368.09</ele>
        <time>2021-01-07T08:42:27Z</time>
      </trkpt>
      <trkpt lat="44.36706" lon="7.34608">
        <ele>1363.77</ele>
        <time>2021-01-07T08:42:59Z</time>
      </trkpt>
      <trkpt lat="44.36704" lon="7.34609">
        <ele>1363.29</ele>
        <time>2021-01-07T08:43:24Z</time>
      </trkpt>
      <trkpt lat="44.36706" lon="7.34612">
        <ele>1364.73</ele>
        <time>2021-01-07T08:43:34Z</time>
      </trkpt>
      <trkpt lat="44.36709" lon="7.34614">
        <ele>1363.77</ele>
        <time>2021-01-07T08:43:56Z</time>
      </trkpt>
      <trkpt lat="44.36706" lon="7.34616">
        <ele>1366.65</ele>
        <time>2021-01-07T08:44:22Z</time>
      </trkpt>
      <trkpt lat="44.36708" lon="7.34613">
        <ele>1370.02</ele>
        <time>2021-01-07T08:44:39Z</time>
      </trkpt>
      <trkpt lat="44.36707" lon="7.3461">
        <ele>1368.57</ele>
        <time>2021-01-07T08:45:07Z</time>
      </trkpt>
      <trkpt lat="44.36709" lon="7.34605">
        <ele>1366.17</ele>
        <time>2021-01-07T08:45:20Z</time>
      </trkpt>
      <trkpt lat="44.36712" lon="7.346">
        <ele>1370.02</ele>
        <time>2021-01-07T08:45:32Z</time>
      </trkpt>
      <trkpt lat="44.36713" lon="7.34591">
        <ele>1371.94</ele>
        <time>2021-01-07T08:45:47Z</time>
      </trkpt>
      <trkpt lat="44.36715" lon="7.3458">
        <ele>1374.34</ele>
        <time>2021-01-07T08:46:06Z</time>
      </trkpt>
      <trkpt lat="44.36714" lon="7.34569">
        <ele>1375.78</ele>
        <time>2021-01-07T08:46:18Z</time>
      </trkpt>
      <trkpt lat="44.36715" lon="7.34556">
        <ele>1378.19</ele>
        <time>2021-01-07T08:46:34Z</time>
      </trkpt>
      <trkpt lat="44.36712" lon="7.34544">
        <ele>1382.03</ele>
        <time>2021-01-07T08:46:50Z</time>
      </trkpt>
      <trkpt lat="44.36714" lon="7.34532">
        <ele>1382.99</ele>
        <time>2021-01-07T08:47:04Z</time>
      </trkpt>
      <trkpt lat="44.36714" lon="7.34518">
        <ele>1383.96</ele>
        <time>2021-01-07T08:47:18Z</time>
      </trkpt>
      <trkpt lat="44.36715" lon="7.34503">
        <ele>1385.88</ele>
        <time>2021-01-07T08:47:32Z</time>
      </trkpt>
      <trkpt lat="44.36717" lon="7.34491">
        <ele>1386.84</ele>
        <time>2021-01-07T08:47:47Z</time>
      </trkpt>
      <trkpt lat="44.36724" lon="7.34483">
        <ele>1387.32</ele>
        <time>2021-01-07T08:48:02Z</time>
      </trkpt>
      <trkpt lat="44.36729" lon="7.34478">
        <ele>1389.72</ele>
        <time>2021-01-07T08:48:14Z</time>
      </trkpt>
      <trkpt lat="44.36735" lon="7.34471">
        <ele>1392.61</ele>
        <time>2021-01-07T08:48:29Z</time>
      </trkpt>
      <trkpt lat="44.36746" lon="7.34466">
        <ele>1394.53</ele>
        <time>2021-01-07T08:48:46Z</time>
      </trkpt>
      <trkpt lat="44.36754" lon="7.34469">
        <ele>1397.41</ele>
        <time>2021-01-07T08:48:58Z</time>
      </trkpt>
      <trkpt lat="44.36761" lon="7.34473">
        <ele>1400.78</ele>
        <time>2021-01-07T08:49:15Z</time>
      </trkpt>
      <trkpt lat="44.36766" lon="7.34469">
        <ele>1402.7</ele>
        <time>2021-01-07T08:49:30Z</time>
      </trkpt>
      <trkpt lat="44.36773" lon="7.34465">
        <ele>1404.62</ele>
        <time>2021-01-07T08:49:42Z</time>
      </trkpt>
      <trkpt lat="44.36778" lon="7.34459">
        <ele>1407.99</ele>
        <time>2021-01-07T08:49:54Z</time>
      </trkpt>
      <trkpt lat="44.36782" lon="7.34453">
        <ele>1409.43</ele>
        <time>2021-01-07T08:50:05Z</time>
      </trkpt>
      <trkpt lat="44.36788" lon="7.34448">
        <ele>1410.39</ele>
        <time>2021-01-07T08:50:19Z</time>
      </trkpt>
      <trkpt lat="44.36795" lon="7.3444">
        <ele>1410.39</ele>
        <time>2021-01-07T08:50:33Z</time>
      </trkpt>
      <trkpt lat="44.36803" lon="7.34437">
        <ele>1413.28</ele>
        <time>2021-01-07T08:50:46Z</time>
      </trkpt>
      <trkpt lat="44.36808" lon="7.3443">
        <ele>1416.64</ele>
        <time>2021-01-07T08:50:57Z</time>
      </trkpt>
      <trkpt lat="44.36815" lon="7.34425">
        <ele>1421.45</ele>
        <time>2021-01-07T08:51:14Z</time>
      </trkpt>
      <trkpt lat="44.36819" lon="7.34421">
        <ele>1420.97</ele>
        <time>2021-01-07T08:51:30Z</time>
      </trkpt>
      <trkpt lat="44.36824" lon="7.34416">
        <ele>1423.37</ele>
        <time>2021-01-07T08:51:45Z</time>
      </trkpt>
      <trkpt lat="44.3683" lon="7.34408">
        <ele>1425.77</ele>
        <time>2021-01-07T08:52:03Z</time>
      </trkpt>
      <trkpt lat="44.36832" lon="7.34401">
        <ele>1427.21</ele>
        <time>2021-01-07T08:52:15Z</time>
      </trkpt>
      <trkpt lat="44.36835" lon="7.3439">
        <ele>1427.7</ele>
        <time>2021-01-07T08:52:30Z</time>
      </trkpt>
      <trkpt lat="44.36837" lon="7.34377">
        <ele>1429.62</ele>
        <time>2021-01-07T08:52:46Z</time>
      </trkpt>
      <trkpt lat="44.3684" lon="7.34359">
        <ele>1431.54</ele>
        <time>2021-01-07T08:53:05Z</time>
      </trkpt>
      <trkpt lat="44.36842" lon="7.34349">
        <ele>1432.02</ele>
        <time>2021-01-07T08:53:18Z</time>
      </trkpt>
      <trkpt lat="44.36843" lon="7.34341">
        <ele>1434.91</ele>
        <time>2021-01-07T08:53:30Z</time>
      </trkpt>
      <trkpt lat="44.36846" lon="7.34326">
        <ele>1434.42</ele>
        <time>2021-01-07T08:53:49Z</time>
      </trkpt>
      <trkpt lat="44.36847" lon="7.34312">
        <ele>1437.31</ele>
        <time>2021-01-07T08:54:06Z</time>
      </trkpt>
      <trkpt lat="44.3685" lon="7.34298">
        <ele>1439.71</ele>
        <time>2021-01-07T08:54:20Z</time>
      </trkpt>
      <trkpt lat="44.36859" lon="7.34284">
        <ele>1440.19</ele>
        <time>2021-01-07T08:54:37Z</time>
      </trkpt>
      <trkpt lat="44.36863" lon="7.34273">
        <ele>1441.63</ele>
        <time>2021-01-07T08:54:50Z</time>
      </trkpt>
      <trkpt lat="44.36866" lon="7.34257">
        <ele>1443.56</ele>
        <time>2021-01-07T08:55:04Z</time>
      </trkpt>
      <trkpt lat="44.36874" lon="7.34241">
        <ele>1446.44</ele>
        <time>2021-01-07T08:55:18Z</time>
      </trkpt>
      <trkpt lat="44.36878" lon="7.34228">
        <ele>1447.4</ele>
        <time>2021-01-07T08:55:31Z</time>
      </trkpt>
      <trkpt lat="44.36885" lon="7.34217">
        <ele>1449.32</ele>
        <time>2021-01-07T08:55:44Z</time>
      </trkpt>
      <trkpt lat="44.36891" lon="7.34209">
        <ele>1448.36</ele>
        <time>2021-01-07T08:55:58Z</time>
      </trkpt>
      <trkpt lat="44.36895" lon="7.34205">
        <ele>1449.32</ele>
        <time>2021-01-07T08:56:14Z</time>
      </trkpt>
      <trkpt lat="44.36898" lon="7.34197">
        <ele>1450.29</ele>
        <time>2021-01-07T08:56:36Z</time>
      </trkpt>
      <trkpt lat="44.36904" lon="7.3418">
        <ele>1449.32</ele>
        <time>2021-01-07T08:56:51Z</time>
      </trkpt>
      <trkpt lat="44.36906" lon="7.34163">
        <ele>1449.81</ele>
        <time>2021-01-07T08:57:07Z</time>
      </trkpt>
      <trkpt lat="44.36906" lon="7.34148">
        <ele>1451.25</ele>
        <time>2021-01-07T08:57:22Z</time>
      </trkpt>
      <trkpt lat="44.36905" lon="7.34134">
        <ele>1452.69</ele>
        <time>2021-01-07T08:57:35Z</time>
      </trkpt>
      <trkpt lat="44.36903" lon="7.34118">
        <ele>1453.65</ele>
        <time>2021-01-07T08:57:50Z</time>
      </trkpt>
      <trkpt lat="44.36902" lon="7.34115">
        <ele>1453.65</ele>
        <time>2021-01-07T08:57:54Z</time>
      </trkpt>
      <trkpt lat="44.36898" lon="7.34098">
        <ele>1455.09</ele>
        <time>2021-01-07T08:58:09Z</time>
      </trkpt>
      <trkpt lat="44.36896" lon="7.3408">
        <ele>1456.53</ele>
        <time>2021-01-07T08:58:26Z</time>
      </trkpt>
      <trkpt lat="44.36894" lon="7.34064">
        <ele>1457.98</ele>
        <time>2021-01-07T08:58:42Z</time>
      </trkpt>
      <trkpt lat="44.36891" lon="7.34057">
        <ele>1458.46</ele>
        <time>2021-01-07T08:58:57Z</time>
      </trkpt>
      <trkpt lat="44.36888" lon="7.3405">
        <ele>1459.42</ele>
        <time>2021-01-07T08:59:14Z</time>
      </trkpt>
      <trkpt lat="44.36885" lon="7.34038">
        <ele>1460.38</ele>
        <time>2021-01-07T08:59:27Z</time>
      </trkpt>
      <trkpt lat="44.36876" lon="7.3402">
        <ele>1460.86</ele>
        <time>2021-01-07T08:59:44Z</time>
      </trkpt>
      <trkpt lat="44.36868" lon="7.3401">
        <ele>1461.82</ele>
        <time>2021-01-07T08:59:58Z</time>
      </trkpt>
      <trkpt lat="44.36867" lon="7.34008">
        <ele>1462.3</ele>
        <time>2021-01-07T09:00:00Z</time>
      </trkpt>
      <trkpt lat="44.36862" lon="7.33987">
        <ele>1461.34</ele>
        <time>2021-01-07T09:00:16Z</time>
      </trkpt>
      <trkpt lat="44.36857" lon="7.33968">
        <ele>1461.82</ele>
        <time>2021-01-07T09:00:32Z</time>
      </trkpt>
      <trkpt lat="44.36853" lon="7.33958">
        <ele>1462.78</ele>
        <time>2021-01-07T09:00:45Z</time>
      </trkpt>
      <trkpt lat="44.36848" lon="7.33947">
        <ele>1464.71</ele>
        <time>2021-01-07T09:00:57Z</time>
      </trkpt>
      <trkpt lat="44.36839" lon="7.33929">
        <ele>1465.19</ele>
        <time>2021-01-07T09:01:12Z</time>
      </trkpt>
      <trkpt lat="44.36829" lon="7.33913">
        <ele>1465.19</ele>
        <time>2021-01-07T09:01:28Z</time>
      </trkpt>
      <trkpt lat="44.36823" lon="7.33904">
        <ele>1464.23</ele>
        <time>2021-01-07T09:01:39Z</time>
      </trkpt>
      <trkpt lat="44.3682" lon="7.3389">
        <ele>1465.19</ele>
        <time>2021-01-07T09:01:53Z</time>
      </trkpt>
      <trkpt lat="44.36814" lon="7.33874">
        <ele>1466.63</ele>
        <time>2021-01-07T09:02:09Z</time>
      </trkpt>
      <trkpt lat="44.36808" lon="7.3386">
        <ele>1468.55</ele>
        <time>2021-01-07T09:02:25Z</time>
      </trkpt>
      <trkpt lat="44.36803" lon="7.33849">
        <ele>1469.51</ele>
        <time>2021-01-07T09:02:41Z</time>
      </trkpt>
      <trkpt lat="44.36798" lon="7.33839">
        <ele>1468.55</ele>
        <time>2021-01-07T09:02:59Z</time>
      </trkpt>
      <trkpt lat="44.36797" lon="7.3383">
        <ele>1469.03</ele>
        <time>2021-01-07T09:03:15Z</time>
      </trkpt>
      <trkpt lat="44.36796" lon="7.33818">
        <ele>1469.03</ele>
        <time>2021-01-07T09:03:31Z</time>
      </trkpt>
      <trkpt lat="44.36794" lon="7.3381">
        <ele>1470.95</ele>
        <time>2021-01-07T09:03:44Z</time>
      </trkpt>
      <trkpt lat="44.36794" lon="7.33806">
        <ele>1472.88</ele>
        <time>2021-01-07T09:03:58Z</time>
      </trkpt>
      <trkpt lat="44.36789" lon="7.33794">
        <ele>1474.8</ele>
        <time>2021-01-07T09:04:14Z</time>
      </trkpt>
      <trkpt lat="44.36786" lon="7.33788">
        <ele>1476.72</ele>
        <time>2021-01-07T09:04:26Z</time>
      </trkpt>
      <trkpt lat="44.36783" lon="7.33778">
        <ele>1480.57</ele>
        <time>2021-01-07T09:04:44Z</time>
      </trkpt>
      <trkpt lat="44.36778" lon="7.33768">
        <ele>1482.97</ele>
        <time>2021-01-07T09:04:58Z</time>
      </trkpt>
      <trkpt lat="44.36775" lon="7.33766">
        <ele>1484.89</ele>
        <time>2021-01-07T09:05:09Z</time>
      </trkpt>
      <trkpt lat="44.36768" lon="7.33765">
        <ele>1484.41</ele>
        <time>2021-01-07T09:05:24Z</time>
      </trkpt>
      <trkpt lat="44.36764" lon="7.33764">
        <ele>1487.78</ele>
        <time>2021-01-07T09:05:37Z</time>
      </trkpt>
      <trkpt lat="44.36756" lon="7.33762">
        <ele>1489.22</ele>
        <time>2021-01-07T09:05:50Z</time>
      </trkpt>
      <trkpt lat="44.36749" lon="7.33762">
        <ele>1492.1</ele>
        <time>2021-01-07T09:06:03Z</time>
      </trkpt>
      <trkpt lat="44.36742" lon="7.33756">
        <ele>1496.91</ele>
        <time>2021-01-07T09:06:17Z</time>
      </trkpt>
      <trkpt lat="44.36739" lon="7.33752">
        <ele>1496.91</ele>
        <time>2021-01-07T09:06:21Z</time>
      </trkpt>
      <trkpt lat="44.36734" lon="7.33744">
        <ele>1497.87</ele>
        <time>2021-01-07T09:06:33Z</time>
      </trkpt>
      <trkpt lat="44.3673" lon="7.33737">
        <ele>1500.27</ele>
        <time>2021-01-07T09:06:46Z</time>
      </trkpt>
      <trkpt lat="44.36727" lon="7.33729">
        <ele>1501.72</ele>
        <time>2021-01-07T09:06:57Z</time>
      </trkpt>
      <trkpt lat="44.36722" lon="7.33722">
        <ele>1502.2</ele>
        <time>2021-01-07T09:07:17Z</time>
      </trkpt>
      <trkpt lat="44.36719" lon="7.33716">
        <ele>1504.6</ele>
        <time>2021-01-07T09:07:31Z</time>
      </trkpt>
      <trkpt lat="44.36715" lon="7.33709">
        <ele>1506.52</ele>
        <time>2021-01-07T09:07:42Z</time>
      </trkpt>
      <trkpt lat="44.3671" lon="7.33702">
        <ele>1507.97</ele>
        <time>2021-01-07T09:07:53Z</time>
      </trkpt>
      <trkpt lat="44.36706" lon="7.33695">
        <ele>1509.41</ele>
        <time>2021-01-07T09:08:06Z</time>
      </trkpt>
      <trkpt lat="44.36707" lon="7.33683">
        <ele>1512.29</ele>
        <time>2021-01-07T09:08:24Z</time>
      </trkpt>
      <trkpt lat="44.36705" lon="7.33671">
        <ele>1515.18</ele>
        <time>2021-01-07T09:08:36Z</time>
      </trkpt>
      <trkpt lat="44.36702" lon="7.33664">
        <ele>1517.58</ele>
        <time>2021-01-07T09:08:50Z</time>
      </trkpt>
      <trkpt lat="44.36697" lon="7.33656">
        <ele>1518.54</ele>
        <time>2021-01-07T09:09:06Z</time>
      </trkpt>
      <trkpt lat="44.36692" lon="7.33645">
        <ele>1521.42</ele>
        <time>2021-01-07T09:09:18Z</time>
      </trkpt>
      <trkpt lat="44.36691" lon="7.33637">
        <ele>1523.35</ele>
        <time>2021-01-07T09:09:34Z</time>
      </trkpt>
      <trkpt lat="44.36688" lon="7.33629">
        <ele>1524.79</ele>
        <time>2021-01-07T09:09:46Z</time>
      </trkpt>
      <trkpt lat="44.36684" lon="7.33623">
        <ele>1525.27</ele>
        <time>2021-01-07T09:09:59Z</time>
      </trkpt>
      <trkpt lat="44.36681" lon="7.33618">
        <ele>1526.71</ele>
        <time>2021-01-07T09:10:11Z</time>
      </trkpt>
      <trkpt lat="44.3668" lon="7.33613">
        <ele>1527.19</ele>
        <time>2021-01-07T09:10:25Z</time>
      </trkpt>
      <trkpt lat="44.36679" lon="7.33609">
        <ele>1528.63</ele>
        <time>2021-01-07T09:10:36Z</time>
      </trkpt>
      <trkpt lat="44.36684" lon="7.3361">
        <ele>1531.04</ele>
        <time>2021-01-07T09:10:47Z</time>
      </trkpt>
      <trkpt lat="44.36689" lon="7.33611">
        <ele>1531.52</ele>
        <time>2021-01-07T09:11:02Z</time>
      </trkpt>
      <trkpt lat="44.36687" lon="7.33605">
        <ele>1533.92</ele>
        <time>2021-01-07T09:11:17Z</time>
      </trkpt>
      <trkpt lat="44.36686" lon="7.33598">
        <ele>1537.77</ele>
        <time>2021-01-07T09:11:30Z</time>
      </trkpt>
      <trkpt lat="44.36687" lon="7.33593">
        <ele>1539.69</ele>
        <time>2021-01-07T09:11:41Z</time>
      </trkpt>
      <trkpt lat="44.36692" lon="7.33591">
        <ele>1539.21</ele>
        <time>2021-01-07T09:11:52Z</time>
      </trkpt>
      <trkpt lat="44.36695" lon="7.33589">
        <ele>1540.17</ele>
        <time>2021-01-07T09:12:06Z</time>
      </trkpt>
      <trkpt lat="44.36699" lon="7.33591">
        <ele>1543.05</ele>
        <time>2021-01-07T09:12:20Z</time>
      </trkpt>
      <trkpt lat="44.36702" lon="7.33592">
        <ele>1545.94</ele>
        <time>2021-01-07T09:12:34Z</time>
      </trkpt>
      <trkpt lat="44.36702" lon="7.33591">
        <ele>1546.9</ele>
        <time>2021-01-07T09:12:44Z</time>
      </trkpt>
      <trkpt lat="44.367" lon="7.33585">
        <ele>1548.34</ele>
        <time>2021-01-07T09:12:58Z</time>
      </trkpt>
      <trkpt lat="44.36703" lon="7.33582">
        <ele>1548.82</ele>
        <time>2021-01-07T09:13:09Z</time>
      </trkpt>
      <trkpt lat="44.36704" lon="7.3358">
        <ele>1549.3</ele>
        <time>2021-01-07T09:13:22Z</time>
      </trkpt>
      <trkpt lat="44.3671" lon="7.33576">
        <ele>1549.3</ele>
        <time>2021-01-07T09:13:31Z</time>
      </trkpt>
      <trkpt lat="44.36716" lon="7.33575">
        <ele>1550.74</ele>
        <time>2021-01-07T09:13:43Z</time>
      </trkpt>
      <trkpt lat="44.36717" lon="7.33574">
        <ele>1551.22</ele>
        <time>2021-01-07T09:13:59Z</time>
      </trkpt>
      <trkpt lat="44.36717" lon="7.33568">
        <ele>1551.22</ele>
        <time>2021-01-07T09:14:10Z</time>
      </trkpt>
      <trkpt lat="44.3672" lon="7.33562">
        <ele>1553.15</ele>
        <time>2021-01-07T09:14:23Z</time>
      </trkpt>
      <trkpt lat="44.36718" lon="7.33555">
        <ele>1555.55</ele>
        <time>2021-01-07T09:14:41Z</time>
      </trkpt>
      <trkpt lat="44.36716" lon="7.33546">
        <ele>1558.43</ele>
        <time>2021-01-07T09:14:53Z</time>
      </trkpt>
      <trkpt lat="44.36718" lon="7.33537">
        <ele>1561.8</ele>
        <time>2021-01-07T09:15:09Z</time>
      </trkpt>
      <trkpt lat="44.3672" lon="7.33532">
        <ele>1563.72</ele>
        <time>2021-01-07T09:15:22Z</time>
      </trkpt>
      <trkpt lat="44.36719" lon="7.3353">
        <ele>1564.2</ele>
        <time>2021-01-07T09:15:33Z</time>
      </trkpt>
      <trkpt lat="44.36715" lon="7.33524">
        <ele>1565.16</ele>
        <time>2021-01-07T09:15:46Z</time>
      </trkpt>
      <trkpt lat="44.36719" lon="7.33515">
        <ele>1569.97</ele>
        <time>2021-01-07T09:16:04Z</time>
      </trkpt>
      <trkpt lat="44.36725" lon="7.3351">
        <ele>1573.33</ele>
        <time>2021-01-07T09:16:16Z</time>
      </trkpt>
      <trkpt lat="44.36731" lon="7.33506">
        <ele>1574.3</ele>
        <time>2021-01-07T09:16:29Z</time>
      </trkpt>
      <trkpt lat="44.3673" lon="7.33504">
        <ele>1575.74</ele>
        <time>2021-01-07T09:16:43Z</time>
      </trkpt>
      <trkpt lat="44.36724" lon="7.33498">
        <ele>1578.62</ele>
        <time>2021-01-07T09:16:56Z</time>
      </trkpt>
      <trkpt lat="44.36722" lon="7.33492">
        <ele>1580.06</ele>
        <time>2021-01-07T09:17:12Z</time>
      </trkpt>
      <trkpt lat="44.36722" lon="7.33484">
        <ele>1581.03</ele>
        <time>2021-01-07T09:17:28Z</time>
      </trkpt>
      <trkpt lat="44.36716" lon="7.33479">
        <ele>1583.91</ele>
        <time>2021-01-07T09:17:41Z</time>
      </trkpt>
      <trkpt lat="44.36708" lon="7.33476">
        <ele>1584.87</ele>
        <time>2021-01-07T09:17:56Z</time>
      </trkpt>
      <trkpt lat="44.36703" lon="7.33472">
        <ele>1587.27</ele>
        <time>2021-01-07T09:18:07Z</time>
      </trkpt>
      <trkpt lat="44.367" lon="7.33466">
        <ele>1588.24</ele>
        <time>2021-01-07T09:18:18Z</time>
      </trkpt>
      <trkpt lat="44.367" lon="7.33468">
        <ele>1589.68</ele>
        <time>2021-01-07T09:18:36Z</time>
      </trkpt>
      <trkpt lat="44.36696" lon="7.3346">
        <ele>1590.64</ele>
        <time>2021-01-07T09:18:47Z</time>
      </trkpt>
      <trkpt lat="44.36692" lon="7.33457">
        <ele>1591.12</ele>
        <time>2021-01-07T09:18:59Z</time>
      </trkpt>
      <trkpt lat="44.36688" lon="7.33455">
        <ele>1591.12</ele>
        <time>2021-01-07T09:19:16Z</time>
      </trkpt>
      <trkpt lat="44.36683" lon="7.33455">
        <ele>1592.08</ele>
        <time>2021-01-07T09:19:34Z</time>
      </trkpt>
      <trkpt lat="44.36677" lon="7.33452">
        <ele>1594.96</ele>
        <time>2021-01-07T09:19:45Z</time>
      </trkpt>
      <trkpt lat="44.36675" lon="7.33445">
        <ele>1597.85</ele>
        <time>2021-01-07T09:19:58Z</time>
      </trkpt>
      <trkpt lat="44.36678" lon="7.33444">
        <ele>1602.66</ele>
        <time>2021-01-07T09:20:23Z</time>
      </trkpt>
      <trkpt lat="44.36674" lon="7.33444">
        <ele>1599.77</ele>
        <time>2021-01-07T09:20:54Z</time>
      </trkpt>
      <trkpt lat="44.36671" lon="7.33436">
        <ele>1601.21</ele>
        <time>2021-01-07T09:21:14Z</time>
      </trkpt>
      <trkpt lat="44.36665" lon="7.33427">
        <ele>1599.77</ele>
        <time>2021-01-07T09:21:29Z</time>
      </trkpt>
      <trkpt lat="44.36663" lon="7.33421">
        <ele>1601.21</ele>
        <time>2021-01-07T09:21:42Z</time>
      </trkpt>
      <trkpt lat="44.36662" lon="7.33415">
        <ele>1604.1</ele>
        <time>2021-01-07T09:21:54Z</time>
      </trkpt>
      <trkpt lat="44.36659" lon="7.3341">
        <ele>1605.54</ele>
        <time>2021-01-07T09:22:08Z</time>
      </trkpt>
      <trkpt lat="44.36658" lon="7.33401">
        <ele>1607.94</ele>
        <time>2021-01-07T09:22:20Z</time>
      </trkpt>
      <trkpt lat="44.36654" lon="7.33397">
        <ele>1610.83</ele>
        <time>2021-01-07T09:22:32Z</time>
      </trkpt>
      <trkpt lat="44.36653" lon="7.33395">
        <ele>1611.31</ele>
        <time>2021-01-07T09:22:47Z</time>
      </trkpt>
      <trkpt lat="44.36652" lon="7.33391">
        <ele>1613.23</ele>
        <time>2021-01-07T09:23:00Z</time>
      </trkpt>
      <trkpt lat="44.36656" lon="7.33383">
        <ele>1615.63</ele>
        <time>2021-01-07T09:23:13Z</time>
      </trkpt>
      <trkpt lat="44.36656" lon="7.33372">
        <ele>1619.48</ele>
        <time>2021-01-07T09:23:29Z</time>
      </trkpt>
      <trkpt lat="44.36658" lon="7.33362">
        <ele>1621.4</ele>
        <time>2021-01-07T09:23:41Z</time>
      </trkpt>
      <trkpt lat="44.36659" lon="7.33358">
        <ele>1621.4</ele>
        <time>2021-01-07T09:23:55Z</time>
      </trkpt>
      <trkpt lat="44.36659" lon="7.33353">
        <ele>1622.84</ele>
        <time>2021-01-07T09:24:15Z</time>
      </trkpt>
      <trkpt lat="44.36659" lon="7.33353">
        <ele>1622.84</ele>
        <time>2021-01-07T09:24:28Z</time>
      </trkpt>
      <trkpt lat="44.36659" lon="7.33354">
        <ele>1622.84</ele>
        <time>2021-01-07T09:24:48Z</time>
      </trkpt>
      <trkpt lat="44.3666" lon="7.33352">
        <ele>1624.28</ele>
        <time>2021-01-07T09:25:08Z</time>
      </trkpt>
      <trkpt lat="44.36658" lon="7.3335">
        <ele>1626.21</ele>
        <time>2021-01-07T09:25:21Z</time>
      </trkpt>
      <trkpt lat="44.36653" lon="7.33348">
        <ele>1626.69</ele>
        <time>2021-01-07T09:25:35Z</time>
      </trkpt>
      <trkpt lat="44.36654" lon="7.33343">
        <ele>1627.17</ele>
        <time>2021-01-07T09:25:48Z</time>
      </trkpt>
      <trkpt lat="44.36658" lon="7.33338">
        <ele>1628.13</ele>
        <time>2021-01-07T09:26:01Z</time>
      </trkpt>
      <trkpt lat="44.36657" lon="7.3334">
        <ele>1629.09</ele>
        <time>2021-01-07T09:26:23Z</time>
      </trkpt>
      <trkpt lat="44.36657" lon="7.33335">
        <ele>1629.57</ele>
        <time>2021-01-07T09:26:36Z</time>
      </trkpt>
      <trkpt lat="44.36649" lon="7.33332">
        <ele>1631.98</ele>
        <time>2021-01-07T09:26:51Z</time>
      </trkpt>
      <trkpt lat="44.36642" lon="7.33325">
        <ele>1635.82</ele>
        <time>2021-01-07T09:27:06Z</time>
      </trkpt>
      <trkpt lat="44.3664" lon="7.33322">
        <ele>1637.26</ele>
        <time>2021-01-07T09:27:19Z</time>
      </trkpt>
      <trkpt lat="44.36643" lon="7.33316">
        <ele>1639.19</ele>
        <time>2021-01-07T09:27:31Z</time>
      </trkpt>
      <trkpt lat="44.36646" lon="7.33309">
        <ele>1640.63</ele>
        <time>2021-01-07T09:27:45Z</time>
      </trkpt>
      <trkpt lat="44.36641" lon="7.33297">
        <ele>1641.11</ele>
        <time>2021-01-07T09:28:00Z</time>
      </trkpt>
      <trkpt lat="44.36633" lon="7.3329">
        <ele>1642.55</ele>
        <time>2021-01-07T09:28:15Z</time>
      </trkpt>
      <trkpt lat="44.3663" lon="7.33289">
        <ele>1642.55</ele>
        <time>2021-01-07T09:28:36Z</time>
      </trkpt>
      <trkpt lat="44.36628" lon="7.33289">
        <ele>1641.11</ele>
        <time>2021-01-07T09:28:59Z</time>
      </trkpt>
      <trkpt lat="44.36628" lon="7.33289">
        <ele>1641.11</ele>
        <time>2021-01-07T09:29:37Z</time>
      </trkpt>
      <trkpt lat="44.36629" lon="7.33288">
        <ele>1643.03</ele>
        <time>2021-01-07T09:30:09Z</time>
      </trkpt>
      <trkpt lat="44.36627" lon="7.33287">
        <ele>1643.03</ele>
        <time>2021-01-07T09:30:14Z</time>
      </trkpt>
      <trkpt lat="44.36616" lon="7.33278">
        <ele>1643.51</ele>
        <time>2021-01-07T09:30:28Z</time>
      </trkpt>
      <trkpt lat="44.36604" lon="7.33268">
        <ele>1643.51</ele>
        <time>2021-01-07T09:30:44Z</time>
      </trkpt>
      <trkpt lat="44.36592" lon="7.3326">
        <ele>1643.51</ele>
        <time>2021-01-07T09:30:58Z</time>
      </trkpt>
      <trkpt lat="44.36582" lon="7.33255">
        <ele>1643.99</ele>
        <time>2021-01-07T09:31:12Z</time>
      </trkpt>
      <trkpt lat="44.36574" lon="7.3325">
        <ele>1644.47</ele>
        <time>2021-01-07T09:31:25Z</time>
      </trkpt>
      <trkpt lat="44.36563" lon="7.33246">
        <ele>1645.91</ele>
        <time>2021-01-07T09:31:39Z</time>
      </trkpt>
      <trkpt lat="44.36551" lon="7.33242">
        <ele>1646.4</ele>
        <time>2021-01-07T09:31:56Z</time>
      </trkpt>
      <trkpt lat="44.3654" lon="7.33238">
        <ele>1647.84</ele>
        <time>2021-01-07T09:32:11Z</time>
      </trkpt>
      <trkpt lat="44.36528" lon="7.33237">
        <ele>1645.91</ele>
        <time>2021-01-07T09:32:26Z</time>
      </trkpt>
      <trkpt lat="44.36517" lon="7.33235">
        <ele>1647.36</ele>
        <time>2021-01-07T09:32:40Z</time>
      </trkpt>
      <trkpt lat="44.36506" lon="7.33233">
        <ele>1647.36</ele>
        <time>2021-01-07T09:32:54Z</time>
      </trkpt>
      <trkpt lat="44.36496" lon="7.33231">
        <ele>1647.36</ele>
        <time>2021-01-07T09:33:08Z</time>
      </trkpt>
      <trkpt lat="44.36487" lon="7.33229">
        <ele>1647.84</ele>
        <time>2021-01-07T09:33:21Z</time>
      </trkpt>
      <trkpt lat="44.36476" lon="7.33226">
        <ele>1648.8</ele>
        <time>2021-01-07T09:33:35Z</time>
      </trkpt>
      <trkpt lat="44.36465" lon="7.33225">
        <ele>1649.76</ele>
        <time>2021-01-07T09:33:51Z</time>
      </trkpt>
      <trkpt lat="44.36456" lon="7.33224">
        <ele>1648.8</ele>
        <time>2021-01-07T09:34:05Z</time>
      </trkpt>
      <trkpt lat="44.36453" lon="7.33223">
        <ele>1648.8</ele>
        <time>2021-01-07T09:34:16Z</time>
      </trkpt>
      <trkpt lat="44.36446" lon="7.3322">
        <ele>1648.8</ele>
        <time>2021-01-07T09:34:30Z</time>
      </trkpt>
      <trkpt lat="44.3644" lon="7.33219">
        <ele>1649.28</ele>
        <time>2021-01-07T09:34:51Z</time>
      </trkpt>
      <trkpt lat="44.36426" lon="7.33214">
        <ele>1648.32</ele>
        <time>2021-01-07T09:35:09Z</time>
      </trkpt>
      <trkpt lat="44.36416" lon="7.33211">
        <ele>1646.88</ele>
        <time>2021-01-07T09:35:21Z</time>
      </trkpt>
      <trkpt lat="44.36407" lon="7.33209">
        <ele>1645.91</ele>
        <time>2021-01-07T09:35:30Z</time>
      </trkpt>
      <trkpt lat="44.36396" lon="7.33206">
        <ele>1645.91</ele>
        <time>2021-01-07T09:35:44Z</time>
      </trkpt>
      <trkpt lat="44.36397" lon="7.33205">
        <ele>1643.51</ele>
        <time>2021-01-07T09:36:10Z</time>
      </trkpt>
      <trkpt lat="44.36397" lon="7.33205">
        <ele>1643.99</ele>
        <time>2021-01-07T09:36:40Z</time>
      </trkpt>
      <trkpt lat="44.36397" lon="7.33204">
        <ele>1643.99</ele>
        <time>2021-01-07T09:37:13Z</time>
      </trkpt>
      <trkpt lat="44.36396" lon="7.33205">
        <ele>1644.95</ele>
        <time>2021-01-07T09:37:47Z</time>
      </trkpt>
      <trkpt lat="44.36389" lon="7.33202">
        <ele>1646.88</ele>
        <time>2021-01-07T09:38:11Z</time>
      </trkpt>
      <trkpt lat="44.36375" lon="7.33197">
        <ele>1648.32</ele>
        <time>2021-01-07T09:38:28Z</time>
      </trkpt>
      <trkpt lat="44.36361" lon="7.33193">
        <ele>1649.28</ele>
        <time>2021-01-07T09:38:44Z</time>
      </trkpt>
      <trkpt lat="44.36347" lon="7.33189">
        <ele>1650.24</ele>
        <time>2021-01-07T09:38:58Z</time>
      </trkpt>
      <trkpt lat="44.36335" lon="7.33185">
        <ele>1650.24</ele>
        <time>2021-01-07T09:39:13Z</time>
      </trkpt>
      <trkpt lat="44.36326" lon="7.33181">
        <ele>1651.68</ele>
        <time>2021-01-07T09:39:25Z</time>
      </trkpt>
      <trkpt lat="44.36322" lon="7.3318">
        <ele>1651.2</ele>
        <time>2021-01-07T09:39:38Z</time>
      </trkpt>
      <trkpt lat="44.36321" lon="7.33179">
        <ele>1651.2</ele>
        <time>2021-01-07T09:39:41Z</time>
      </trkpt>
      <trkpt lat="44.3631" lon="7.33173">
        <ele>1653.12</ele>
        <time>2021-01-07T09:39:55Z</time>
      </trkpt>
      <trkpt lat="44.36301" lon="7.3317">
        <ele>1655.05</ele>
        <time>2021-01-07T09:40:09Z</time>
      </trkpt>
      <trkpt lat="44.36291" lon="7.33165">
        <ele>1656.97</ele>
        <time>2021-01-07T09:40:23Z</time>
      </trkpt>
      <trkpt lat="44.36284" lon="7.33162">
        <ele>1659.85</ele>
        <time>2021-01-07T09:40:36Z</time>
      </trkpt>
      <trkpt lat="44.36276" lon="7.33161">
        <ele>1660.81</ele>
        <time>2021-01-07T09:40:50Z</time>
      </trkpt>
      <trkpt lat="44.36276" lon="7.33162">
        <ele>1659.37</ele>
        <time>2021-01-07T09:41:16Z</time>
      </trkpt>
      <trkpt lat="44.36271" lon="7.33158">
        <ele>1662.26</ele>
        <time>2021-01-07T09:41:32Z</time>
      </trkpt>
      <trkpt lat="44.36262" lon="7.33152">
        <ele>1665.14</ele>
        <time>2021-01-07T09:41:47Z</time>
      </trkpt>
      <trkpt lat="44.36254" lon="7.33148">
        <ele>1668.99</ele>
        <time>2021-01-07T09:42:02Z</time>
      </trkpt>
      <trkpt lat="44.36247" lon="7.33147">
        <ele>1671.87</ele>
        <time>2021-01-07T09:42:15Z</time>
      </trkpt>
      <trkpt lat="44.36239" lon="7.33144">
        <ele>1673.79</ele>
        <time>2021-01-07T09:42:30Z</time>
      </trkpt>
      <trkpt lat="44.36233" lon="7.33142">
        <ele>1676.68</ele>
        <time>2021-01-07T09:42:46Z</time>
      </trkpt>
      <trkpt lat="44.36228" lon="7.33139">
        <ele>1680.04</ele>
        <time>2021-01-07T09:42:59Z</time>
      </trkpt>
      <trkpt lat="44.36222" lon="7.33137">
        <ele>1681.48</ele>
        <time>2021-01-07T09:43:12Z</time>
      </trkpt>
      <trkpt lat="44.36214" lon="7.33131">
        <ele>1681</ele>
        <time>2021-01-07T09:43:24Z</time>
      </trkpt>
      <trkpt lat="44.36211" lon="7.33129">
        <ele>1681.96</ele>
        <time>2021-01-07T09:43:39Z</time>
      </trkpt>
      <trkpt lat="44.36205" lon="7.33135">
        <ele>1684.85</ele>
        <time>2021-01-07T09:43:51Z</time>
      </trkpt>
      <trkpt lat="44.362" lon="7.33136">
        <ele>1687.73</ele>
        <time>2021-01-07T09:44:02Z</time>
      </trkpt>
      <trkpt lat="44.36194" lon="7.33127">
        <ele>1689.17</ele>
        <time>2021-01-07T09:44:16Z</time>
      </trkpt>
      <trkpt lat="44.36188" lon="7.33127">
        <ele>1690.62</ele>
        <time>2021-01-07T09:44:28Z</time>
      </trkpt>
      <trkpt lat="44.36179" lon="7.33131">
        <ele>1692.54</ele>
        <time>2021-01-07T09:44:44Z</time>
      </trkpt>
      <trkpt lat="44.36172" lon="7.33124">
        <ele>1693.98</ele>
        <time>2021-01-07T09:44:57Z</time>
      </trkpt>
      <trkpt lat="44.36168" lon="7.33118">
        <ele>1695.9</ele>
        <time>2021-01-07T09:45:10Z</time>
      </trkpt>
      <trkpt lat="44.36161" lon="7.33116">
        <ele>1697.34</ele>
        <time>2021-01-07T09:45:24Z</time>
      </trkpt>
      <trkpt lat="44.36156" lon="7.33125">
        <ele>1699.27</ele>
        <time>2021-01-07T09:45:38Z</time>
      </trkpt>
      <trkpt lat="44.36147" lon="7.33124">
        <ele>1700.23</ele>
        <time>2021-01-07T09:45:54Z</time>
      </trkpt>
      <trkpt lat="44.36141" lon="7.33113">
        <ele>1702.63</ele>
        <time>2021-01-07T09:46:10Z</time>
      </trkpt>
      <trkpt lat="44.36135" lon="7.33105">
        <ele>1705.52</ele>
        <time>2021-01-07T09:46:24Z</time>
      </trkpt>
      <trkpt lat="44.36129" lon="7.33113">
        <ele>1707.44</ele>
        <time>2021-01-07T09:46:38Z</time>
      </trkpt>
      <trkpt lat="44.36123" lon="7.33113">
        <ele>1708.88</ele>
        <time>2021-01-07T09:46:52Z</time>
      </trkpt>
      <trkpt lat="44.36118" lon="7.33106">
        <ele>1711.76</ele>
        <time>2021-01-07T09:47:05Z</time>
      </trkpt>
      <trkpt lat="44.36111" lon="7.33098">
        <ele>1714.65</ele>
        <time>2021-01-07T09:47:19Z</time>
      </trkpt>
      <trkpt lat="44.36107" lon="7.33101">
        <ele>1716.57</ele>
        <time>2021-01-07T09:47:32Z</time>
      </trkpt>
      <trkpt lat="44.36102" lon="7.33107">
        <ele>1718.49</ele>
        <time>2021-01-07T09:47:44Z</time>
      </trkpt>
      <trkpt lat="44.36099" lon="7.33106">
        <ele>1720.42</ele>
        <time>2021-01-07T09:47:53Z</time>
      </trkpt>
      <trkpt lat="44.36096" lon="7.33099">
        <ele>1721.38</ele>
        <time>2021-01-07T09:48:06Z</time>
      </trkpt>
      <trkpt lat="44.36091" lon="7.33089">
        <ele>1722.82</ele>
        <time>2021-01-07T09:48:21Z</time>
      </trkpt>
      <trkpt lat="44.36091" lon="7.33088">
        <ele>1723.3</ele>
        <time>2021-01-07T09:48:22Z</time>
      </trkpt>
      <trkpt lat="44.36088" lon="7.3309">
        <ele>1724.74</ele>
        <time>2021-01-07T09:48:31Z</time>
      </trkpt>
      <trkpt lat="44.36083" lon="7.33098">
        <ele>1726.18</ele>
        <time>2021-01-07T09:48:46Z</time>
      </trkpt>
      <trkpt lat="44.36078" lon="7.33102">
        <ele>1728.59</ele>
        <time>2021-01-07T09:48:59Z</time>
      </trkpt>
      <trkpt lat="44.36074" lon="7.33099">
        <ele>1730.51</ele>
        <time>2021-01-07T09:49:09Z</time>
      </trkpt>
      <trkpt lat="44.3607" lon="7.33092">
        <ele>1732.91</ele>
        <time>2021-01-07T09:49:21Z</time>
      </trkpt>
      <trkpt lat="44.36066" lon="7.3308">
        <ele>1735.32</ele>
        <time>2021-01-07T09:49:37Z</time>
      </trkpt>
      <trkpt lat="44.36063" lon="7.33079">
        <ele>1735.8</ele>
        <time>2021-01-07T09:49:50Z</time>
      </trkpt>
      <trkpt lat="44.36057" lon="7.33085">
        <ele>1736.76</ele>
        <time>2021-01-07T09:50:04Z</time>
      </trkpt>
      <trkpt lat="44.36049" lon="7.33084">
        <ele>1738.68</ele>
        <time>2021-01-07T09:50:19Z</time>
      </trkpt>
      <trkpt lat="44.36045" lon="7.33074">
        <ele>1741.08</ele>
        <time>2021-01-07T09:50:34Z</time>
      </trkpt>
      <trkpt lat="44.36041" lon="7.33071">
        <ele>1744.45</ele>
        <time>2021-01-07T09:50:46Z</time>
      </trkpt>
      <trkpt lat="44.36034" lon="7.33074">
        <ele>1745.89</ele>
        <time>2021-01-07T09:51:01Z</time>
      </trkpt>
      <trkpt lat="44.36027" lon="7.33073">
        <ele>1748.29</ele>
        <time>2021-01-07T09:51:13Z</time>
      </trkpt>
      <trkpt lat="44.36019" lon="7.33069">
        <ele>1749.74</ele>
        <time>2021-01-07T09:51:29Z</time>
      </trkpt>
      <trkpt lat="44.36013" lon="7.33071">
        <ele>1752.62</ele>
        <time>2021-01-07T09:51:43Z</time>
      </trkpt>
      <trkpt lat="44.36007" lon="7.33066">
        <ele>1754.06</ele>
        <time>2021-01-07T09:51:58Z</time>
      </trkpt>
      <trkpt lat="44.35999" lon="7.33064">
        <ele>1755.02</ele>
        <time>2021-01-07T09:52:16Z</time>
      </trkpt>
      <trkpt lat="44.35991" lon="7.33057">
        <ele>1756.95</ele>
        <time>2021-01-07T09:52:31Z</time>
      </trkpt>
      <trkpt lat="44.35983" lon="7.33052">
        <ele>1759.83</ele>
        <time>2021-01-07T09:52:46Z</time>
      </trkpt>
      <trkpt lat="44.35975" lon="7.33049">
        <ele>1762.23</ele>
        <time>2021-01-07T09:53:00Z</time>
      </trkpt>
      <trkpt lat="44.3597" lon="7.33047">
        <ele>1764.64</ele>
        <time>2021-01-07T09:53:14Z</time>
      </trkpt>
      <trkpt lat="44.35963" lon="7.33043">
        <ele>1766.08</ele>
        <time>2021-01-07T09:53:37Z</time>
      </trkpt>
      <trkpt lat="44.35957" lon="7.33038">
        <ele>1769.44</ele>
        <time>2021-01-07T09:53:50Z</time>
      </trkpt>
      <trkpt lat="44.35949" lon="7.33029">
        <ele>1771.85</ele>
        <time>2021-01-07T09:54:05Z</time>
      </trkpt>
      <trkpt lat="44.35943" lon="7.33021">
        <ele>1773.77</ele>
        <time>2021-01-07T09:54:18Z</time>
      </trkpt>
      <trkpt lat="44.35935" lon="7.33011">
        <ele>1774.73</ele>
        <time>2021-01-07T09:54:32Z</time>
      </trkpt>
      <trkpt lat="44.35926" lon="7.32999">
        <ele>1776.17</ele>
        <time>2021-01-07T09:54:48Z</time>
      </trkpt>
      <trkpt lat="44.3592" lon="7.3299">
        <ele>1777.61</ele>
        <time>2021-01-07T09:55:04Z</time>
      </trkpt>
      <trkpt lat="44.35916" lon="7.3298">
        <ele>1780.02</ele>
        <time>2021-01-07T09:55:17Z</time>
      </trkpt>
      <trkpt lat="44.35916" lon="7.3297">
        <ele>1783.38</ele>
        <time>2021-01-07T09:55:32Z</time>
      </trkpt>
      <trkpt lat="44.35912" lon="7.32959">
        <ele>1784.34</ele>
        <time>2021-01-07T09:55:48Z</time>
      </trkpt>
      <trkpt lat="44.35906" lon="7.32957">
        <ele>1787.23</ele>
        <time>2021-01-07T09:56:00Z</time>
      </trkpt>
      <trkpt lat="44.35896" lon="7.32954">
        <ele>1788.67</ele>
        <time>2021-01-07T09:56:17Z</time>
      </trkpt>
      <trkpt lat="44.3589" lon="7.32947">
        <ele>1791.55</ele>
        <time>2021-01-07T09:56:31Z</time>
      </trkpt>
      <trkpt lat="44.35884" lon="7.3294">
        <ele>1793.96</ele>
        <time>2021-01-07T09:56:45Z</time>
      </trkpt>
      <trkpt lat="44.35877" lon="7.32931">
        <ele>1796.36</ele>
        <time>2021-01-07T09:57:00Z</time>
      </trkpt>
      <trkpt lat="44.35869" lon="7.3292">
        <ele>1798.28</ele>
        <time>2021-01-07T09:57:14Z</time>
      </trkpt>
      <trkpt lat="44.35864" lon="7.32909">
        <ele>1799.73</ele>
        <time>2021-01-07T09:57:28Z</time>
      </trkpt>
      <trkpt lat="44.35859" lon="7.32896">
        <ele>1801.17</ele>
        <time>2021-01-07T09:57:43Z</time>
      </trkpt>
      <trkpt lat="44.35855" lon="7.32887">
        <ele>1802.13</ele>
        <time>2021-01-07T09:57:56Z</time>
      </trkpt>
      <trkpt lat="44.35849" lon="7.32872">
        <ele>1803.57</ele>
        <time>2021-01-07T09:58:11Z</time>
      </trkpt>
      <trkpt lat="44.35844" lon="7.32859">
        <ele>1804.05</ele>
        <time>2021-01-07T09:58:24Z</time>
      </trkpt>
      <trkpt lat="44.3584" lon="7.32848">
        <ele>1806.45</ele>
        <time>2021-01-07T09:58:40Z</time>
      </trkpt>
      <trkpt lat="44.35836" lon="7.32837">
        <ele>1808.38</ele>
        <time>2021-01-07T09:58:54Z</time>
      </trkpt>
      <trkpt lat="44.35831" lon="7.32826">
        <ele>1810.3</ele>
        <time>2021-01-07T09:59:07Z</time>
      </trkpt>
      <trkpt lat="44.3583" lon="7.32825">
        <ele>1810.78</ele>
        <time>2021-01-07T09:59:09Z</time>
      </trkpt>
      <trkpt lat="44.35816" lon="7.32802">
        <ele>1808.38</ele>
        <time>2021-01-07T09:59:25Z</time>
      </trkpt>
      <trkpt lat="44.35812" lon="7.32795">
        <ele>1807.9</ele>
        <time>2021-01-07T09:59:31Z</time>
      </trkpt>
      <trkpt lat="44.35802" lon="7.32784">
        <ele>1807.9</ele>
        <time>2021-01-07T09:59:47Z</time>
      </trkpt>
      <trkpt lat="44.35795" lon="7.32773">
        <ele>1810.3</ele>
        <time>2021-01-07T10:00:01Z</time>
      </trkpt>
      <trkpt lat="44.35788" lon="7.32761">
        <ele>1812.7</ele>
        <time>2021-01-07T10:00:15Z</time>
      </trkpt>
      <trkpt lat="44.35787" lon="7.32753">
        <ele>1812.7</ele>
        <time>2021-01-07T10:00:27Z</time>
      </trkpt>
      <trkpt lat="44.35787" lon="7.32751">
        <ele>1813.18</ele>
        <time>2021-01-07T10:00:42Z</time>
      </trkpt>
      <trkpt lat="44.35788" lon="7.32753">
        <ele>1812.22</ele>
        <time>2021-01-07T10:01:00Z</time>
      </trkpt>
      <trkpt lat="44.35787" lon="7.3275">
        <ele>1812.22</ele>
        <time>2021-01-07T10:01:09Z</time>
      </trkpt>
      <trkpt lat="44.35787" lon="7.3275">
        <ele>1812.22</ele>
        <time>2021-01-07T10:01:22Z</time>
      </trkpt>
      <trkpt lat="44.35787" lon="7.32751">
        <ele>1811.74</ele>
        <time>2021-01-07T10:01:31Z</time>
      </trkpt>
      <trkpt lat="44.35785" lon="7.32749">
        <ele>1811.26</ele>
        <time>2021-01-07T10:01:44Z</time>
      </trkpt>
      <trkpt lat="44.35783" lon="7.3275">
        <ele>1811.74</ele>
        <time>2021-01-07T10:01:55Z</time>
      </trkpt>
      <trkpt lat="44.35782" lon="7.3275">
        <ele>1811.74</ele>
        <time>2021-01-07T10:02:09Z</time>
      </trkpt>
      <trkpt lat="44.35783" lon="7.32752">
        <ele>1810.78</ele>
        <time>2021-01-07T10:02:31Z</time>
      </trkpt>
      <trkpt lat="44.35783" lon="7.32751">
        <ele>1811.74</ele>
        <time>2021-01-07T10:03:11Z</time>
      </trkpt>
      <trkpt lat="44.35783" lon="7.32751">
        <ele>1810.3</ele>
        <time>2021-01-07T10:03:46Z</time>
      </trkpt>
      <trkpt lat="44.35785" lon="7.32751">
        <ele>1810.3</ele>
        <time>2021-01-07T10:04:17Z</time>
      </trkpt>
      <trkpt lat="44.35784" lon="7.3275">
        <ele>1809.82</ele>
        <time>2021-01-07T10:04:24Z</time>
      </trkpt>
      <trkpt lat="44.35786" lon="7.32752">
        <ele>1809.82</ele>
        <time>2021-01-07T10:04:33Z</time>
      </trkpt>
      <trkpt lat="44.35785" lon="7.32754">
        <ele>1808.86</ele>
        <time>2021-01-07T10:04:45Z</time>
      </trkpt>
      <trkpt lat="44.35785" lon="7.32754">
        <ele>1809.34</ele>
        <time>2021-01-07T10:05:29Z</time>
      </trkpt>
      <trkpt lat="44.35786" lon="7.32754">
        <ele>1808.86</ele>
        <time>2021-01-07T10:06:17Z</time>
      </trkpt>
      <trkpt lat="44.35786" lon="7.32754">
        <ele>1809.34</ele>
        <time>2021-01-07T10:06:58Z</time>
      </trkpt>
      <trkpt lat="44.35786" lon="7.32754">
        <ele>1809.34</ele>
        <time>2021-01-07T10:07:34Z</time>
      </trkpt>
      <trkpt lat="44.35786" lon="7.32754">
        <ele>1808.86</ele>
        <time>2021-01-07T10:08:15Z</time>
      </trkpt>
      <trkpt lat="44.35787" lon="7.32754">
        <ele>1809.34</ele>
        <time>2021-01-07T10:08:31Z</time>
      </trkpt>
      <trkpt lat="44.35785" lon="7.32753">
        <ele>1809.82</ele>
        <time>2021-01-07T10:08:44Z</time>
      </trkpt>
      <trkpt lat="44.35786" lon="7.32753">
        <ele>1808.38</ele>
        <time>2021-01-07T10:09:27Z</time>
      </trkpt>
      <trkpt lat="44.35786" lon="7.32751">
        <ele>1807.42</ele>
        <time>2021-01-07T10:10:02Z</time>
      </trkpt>
      <trkpt lat="44.35785" lon="7.32752">
        <ele>1807.9</ele>
        <time>2021-01-07T10:10:46Z</time>
      </trkpt>
      <trkpt lat="44.35786" lon="7.32752">
        <ele>1807.42</ele>
        <time>2021-01-07T10:11:15Z</time>
      </trkpt>
      <trkpt lat="44.35786" lon="7.32752">
        <ele>1808.38</ele>
        <time>2021-01-07T10:11:51Z</time>
      </trkpt>
      <trkpt lat="44.35785" lon="7.32753">
        <ele>1808.86</ele>
        <time>2021-01-07T10:12:32Z</time>
      </trkpt>
      <trkpt lat="44.35786" lon="7.32753">
        <ele>1807.9</ele>
        <time>2021-01-07T10:12:57Z</time>
      </trkpt>
      <trkpt lat="44.35787" lon="7.32754">
        <ele>1808.86</ele>
        <time>2021-01-07T10:13:26Z</time>
      </trkpt>
      <trkpt lat="44.35785" lon="7.32754">
        <ele>1808.86</ele>
        <time>2021-01-07T10:13:42Z</time>
      </trkpt>
      <trkpt lat="44.35784" lon="7.32754">
        <ele>1809.82</ele>
        <time>2021-01-07T10:14:08Z</time>
      </trkpt>
      <trkpt lat="44.35784" lon="7.32754">
        <ele>1808.86</ele>
        <time>2021-01-07T10:14:41Z</time>
      </trkpt>
      <trkpt lat="44.35783" lon="7.32754">
        <ele>1810.3</ele>
        <time>2021-01-07T10:15:19Z</time>
      </trkpt>
      <trkpt lat="44.35784" lon="7.32754">
        <ele>1809.82</ele>
        <time>2021-01-07T10:15:54Z</time>
      </trkpt>
      <trkpt lat="44.35784" lon="7.32754">
        <ele>1809.82</ele>
        <time>2021-01-07T10:16:25Z</time>
      </trkpt>
      <trkpt lat="44.35784" lon="7.32754">
        <ele>1809.82</ele>
        <time>2021-01-07T10:17:07Z</time>
      </trkpt>
      <trkpt lat="44.35785" lon="7.32754">
        <ele>1809.34</ele>
        <time>2021-01-07T10:17:41Z</time>
      </trkpt>
      <trkpt lat="44.35784" lon="7.32754">
        <ele>1810.3</ele>
        <time>2021-01-07T10:18:12Z</time>
      </trkpt>
      <trkpt lat="44.35784" lon="7.32754">
        <ele>1810.3</ele>
        <time>2021-01-07T10:18:45Z</time>
      </trkpt>
      <trkpt lat="44.35784" lon="7.32754">
        <ele>1808.86</ele>
        <time>2021-01-07T10:19:23Z</time>
      </trkpt>
      <trkpt lat="44.35784" lon="7.32754">
        <ele>1808.86</ele>
        <time>2021-01-07T10:20:10Z</time>
      </trkpt>
      <trkpt lat="44.35784" lon="7.32755">
        <ele>1808.86</ele>
        <time>2021-01-07T10:20:43Z</time>
      </trkpt>
      <trkpt lat="44.35785" lon="7.32753">
        <ele>1808.38</ele>
        <time>2021-01-07T10:21:16Z</time>
      </trkpt>
      <trkpt lat="44.35785" lon="7.32753">
        <ele>1808.38</ele>
        <time>2021-01-07T10:21:56Z</time>
      </trkpt>
      <trkpt lat="44.35785" lon="7.32754">
        <ele>1809.34</ele>
        <time>2021-01-07T10:22:31Z</time>
      </trkpt>
      <trkpt lat="44.35784" lon="7.32754">
        <ele>1809.34</ele>
        <time>2021-01-07T10:23:15Z</time>
      </trkpt>
      <trkpt lat="44.35784" lon="7.32753">
        <ele>1809.34</ele>
        <time>2021-01-07T10:23:53Z</time>
      </trkpt>
      <trkpt lat="44.35784" lon="7.32753">
        <ele>1808.86</ele>
        <time>2021-01-07T10:24:32Z</time>
      </trkpt>
      <trkpt lat="44.35783" lon="7.32752">
        <ele>1811.26</ele>
        <time>2021-01-07T10:25:09Z</time>
      </trkpt>
      <trkpt lat="44.35782" lon="7.32753">
        <ele>1812.7</ele>
        <time>2021-01-07T10:25:36Z</time>
      </trkpt>
      <trkpt lat="44.35785" lon="7.32753">
        <ele>1812.22</ele>
        <time>2021-01-07T10:26:02Z</time>
      </trkpt>
      <trkpt lat="44.35786" lon="7.32753">
        <ele>1811.26</ele>
        <time>2021-01-07T10:26:34Z</time>
      </trkpt>
      <trkpt lat="44.35786" lon="7.32753">
        <ele>1810.3</ele>
        <time>2021-01-07T10:26:57Z</time>
      </trkpt>
      <trkpt lat="44.35785" lon="7.32751">
        <ele>1809.34</ele>
        <time>2021-01-07T10:27:23Z</time>
      </trkpt>
      <trkpt lat="44.35784" lon="7.32751">
        <ele>1811.26</ele>
        <time>2021-01-07T10:27:49Z</time>
      </trkpt>
      <trkpt lat="44.35785" lon="7.32751">
        <ele>1811.74</ele>
        <time>2021-01-07T10:28:10Z</time>
      </trkpt>
      <trkpt lat="44.35784" lon="7.32751">
        <ele>1813.18</ele>
        <time>2021-01-07T10:28:24Z</time>
      </trkpt>
      <trkpt lat="44.35783" lon="7.32751">
        <ele>1812.22</ele>
        <time>2021-01-07T10:28:50Z</time>
      </trkpt>
      <trkpt lat="44.35785" lon="7.32752">
        <ele>1812.7</ele>
        <time>2021-01-07T10:29:00Z</time>
      </trkpt>
      <trkpt lat="44.35786" lon="7.32752">
        <ele>1813.18</ele>
        <time>2021-01-07T10:29:16Z</time>
      </trkpt>
      <trkpt lat="44.35787" lon="7.32754">
        <ele>1812.7</ele>
        <time>2021-01-07T10:29:31Z</time>
      </trkpt>
      <trkpt lat="44.35787" lon="7.32755">
        <ele>1811.74</ele>
        <time>2021-01-07T10:29:47Z</time>
      </trkpt>
      <trkpt lat="44.35785" lon="7.32753">
        <ele>1811.74</ele>
        <time>2021-01-07T10:30:06Z</time>
      </trkpt>
      <trkpt lat="44.35786" lon="7.32754">
        <ele>1811.74</ele>
        <time>2021-01-07T10:30:23Z</time>
      </trkpt>
      <trkpt lat="44.35786" lon="7.32753">
        <ele>1811.74</ele>
        <time>2021-01-07T10:30:35Z</time>
      </trkpt>
      <trkpt lat="44.35786" lon="7.32755">
        <ele>1810.78</ele>
        <time>2021-01-07T10:30:58Z</time>
      </trkpt>
      <trkpt lat="44.35787" lon="7.32754">
        <ele>1811.26</ele>
        <time>2021-01-07T10:31:17Z</time>
      </trkpt>
      <trkpt lat="44.35787" lon="7.32754">
        <ele>1812.22</ele>
        <time>2021-01-07T10:31:31Z</time>
      </trkpt>
      <trkpt lat="44.3579" lon="7.32759">
        <ele>1812.22</ele>
        <time>2021-01-07T10:31:38Z</time>
      </trkpt>
      <trkpt lat="44.35796" lon="7.32773">
        <ele>1810.78</ele>
        <time>2021-01-07T10:31:44Z</time>
      </trkpt>
      <trkpt lat="44.358" lon="7.32778">
        <ele>1809.34</ele>
        <time>2021-01-07T10:31:45Z</time>
      </trkpt>
      <trkpt lat="44.35805" lon="7.32784">
        <ele>1808.38</ele>
        <time>2021-01-07T10:31:46Z</time>
      </trkpt>
      <trkpt lat="44.3581" lon="7.32789">
        <ele>1807.42</ele>
        <time>2021-01-07T10:31:47Z</time>
      </trkpt>
      <trkpt lat="44.35814" lon="7.32794">
        <ele>1806.94</ele>
        <time>2021-01-07T10:31:48Z</time>
      </trkpt>
      <trkpt lat="44.35817" lon="7.32799">
        <ele>1806.45</ele>
        <time>2021-01-07T10:31:49Z</time>
      </trkpt>
      <trkpt lat="44.35823" lon="7.32809">
        <ele>1807.42</ele>
        <time>2021-01-07T10:31:56Z</time>
      </trkpt>
      <trkpt lat="44.35826" lon="7.32816">
        <ele>1806.94</ele>
        <time>2021-01-07T10:32:05Z</time>
      </trkpt>
      <trkpt lat="44.3583" lon="7.32821">
        <ele>1807.42</ele>
        <time>2021-01-07T10:32:14Z</time>
      </trkpt>
      <trkpt lat="44.35833" lon="7.32826">
        <ele>1807.42</ele>
        <time>2021-01-07T10:32:22Z</time>
      </trkpt>
      <trkpt lat="44.35834" lon="7.32827">
        <ele>1807.42</ele>
        <time>2021-01-07T10:32:23Z</time>
      </trkpt>
      <trkpt lat="44.35835" lon="7.32829">
        <ele>1806.94</ele>
        <time>2021-01-07T10:32:25Z</time>
      </trkpt>
      <trkpt lat="44.35837" lon="7.32829">
        <ele>1806.94</ele>
        <time>2021-01-07T10:32:26Z</time>
      </trkpt>
      <trkpt lat="44.35841" lon="7.3283">
        <ele>1805.97</ele>
        <time>2021-01-07T10:32:28Z</time>
      </trkpt>
      <trkpt lat="44.35844" lon="7.32834">
        <ele>1805.49</ele>
        <time>2021-01-07T10:32:29Z</time>
      </trkpt>
      <trkpt lat="44.35844" lon="7.32839">
        <ele>1804.53</ele>
        <time>2021-01-07T10:32:30Z</time>
      </trkpt>
      <trkpt lat="44.35844" lon="7.32843">
        <ele>1804.05</ele>
        <time>2021-01-07T10:32:31Z</time>
      </trkpt>
      <trkpt lat="44.35846" lon="7.32846">
        <ele>1803.57</ele>
        <time>2021-01-07T10:32:32Z</time>
      </trkpt>
      <trkpt lat="44.35848" lon="7.32848">
        <ele>1802.61</ele>
        <time>2021-01-07T10:32:33Z</time>
      </trkpt>
      <trkpt lat="44.35851" lon="7.3285">
        <ele>1802.13</ele>
        <time>2021-01-07T10:32:34Z</time>
      </trkpt>
      <trkpt lat="44.35854" lon="7.32854">
        <ele>1801.17</ele>
        <time>2021-01-07T10:32:35Z</time>
      </trkpt>
      <trkpt lat="44.35856" lon="7.32859">
        <ele>1800.69</ele>
        <time>2021-01-07T10:32:36Z</time>
      </trkpt>
      <trkpt lat="44.35859" lon="7.32864">
        <ele>1800.21</ele>
        <time>2021-01-07T10:32:37Z</time>
      </trkpt>
      <trkpt lat="44.35862" lon="7.32869">
        <ele>1799.24</ele>
        <time>2021-01-07T10:32:38Z</time>
      </trkpt>
      <trkpt lat="44.35866" lon="7.32874">
        <ele>1798.76</ele>
        <time>2021-01-07T10:32:39Z</time>
      </trkpt>
      <trkpt lat="44.35869" lon="7.32879">
        <ele>1798.28</ele>
        <time>2021-01-07T10:32:40Z</time>
      </trkpt>
      <trkpt lat="44.35871" lon="7.32884">
        <ele>1797.32</ele>
        <time>2021-01-07T10:32:41Z</time>
      </trkpt>
      <trkpt lat="44.35874" lon="7.32889">
        <ele>1796.84</ele>
        <time>2021-01-07T10:32:42Z</time>
      </trkpt>
      <trkpt lat="44.35877" lon="7.32894">
        <ele>1795.88</ele>
        <time>2021-01-07T10:32:43Z</time>
      </trkpt>
      <trkpt lat="44.35879" lon="7.329">
        <ele>1795.4</ele>
        <time>2021-01-07T10:32:44Z</time>
      </trkpt>
      <trkpt lat="44.35882" lon="7.32906">
        <ele>1794.44</ele>
        <time>2021-01-07T10:32:45Z</time>
      </trkpt>
      <trkpt lat="44.35885" lon="7.3291">
        <ele>1793.96</ele>
        <time>2021-01-07T10:32:46Z</time>
      </trkpt>
      <trkpt lat="44.35889" lon="7.32915">
        <ele>1793</ele>
        <time>2021-01-07T10:32:47Z</time>
      </trkpt>
      <trkpt lat="44.35891" lon="7.3292">
        <ele>1792.03</ele>
        <time>2021-01-07T10:32:48Z</time>
      </trkpt>
      <trkpt lat="44.35891" lon="7.32923">
        <ele>1791.55</ele>
        <time>2021-01-07T10:32:49Z</time>
      </trkpt>
      <trkpt lat="44.35893" lon="7.32927">
        <ele>1790.11</ele>
        <time>2021-01-07T10:33:00Z</time>
      </trkpt>
      <trkpt lat="44.35906" lon="7.3293">
        <ele>1785.31</ele>
        <time>2021-01-07T10:33:06Z</time>
      </trkpt>
      <trkpt lat="44.35922" lon="7.32941">
        <ele>1780.02</ele>
        <time>2021-01-07T10:33:12Z</time>
      </trkpt>
      <trkpt lat="44.35946" lon="7.32968">
        <ele>1772.81</ele>
        <time>2021-01-07T10:33:21Z</time>
      </trkpt>
      <trkpt lat="44.35959" lon="7.32985">
        <ele>1768.96</ele>
        <time>2021-01-07T10:33:25Z</time>
      </trkpt>
      <trkpt lat="44.35979" lon="7.3303">
        <ele>1761.75</ele>
        <time>2021-01-07T10:33:36Z</time>
      </trkpt>
      <trkpt lat="44.35985" lon="7.33035">
        <ele>1760.31</ele>
        <time>2021-01-07T10:33:38Z</time>
      </trkpt>
      <trkpt lat="44.35992" lon="7.33035">
        <ele>1758.39</ele>
        <time>2021-01-07T10:33:40Z</time>
      </trkpt>
      <trkpt lat="44.35995" lon="7.33038">
        <ele>1757.43</ele>
        <time>2021-01-07T10:33:41Z</time>
      </trkpt>
      <trkpt lat="44.35997" lon="7.33041">
        <ele>1756.47</ele>
        <time>2021-01-07T10:33:42Z</time>
      </trkpt>
      <trkpt lat="44.36" lon="7.33044">
        <ele>1755.99</ele>
        <time>2021-01-07T10:33:43Z</time>
      </trkpt>
      <trkpt lat="44.36003" lon="7.33046">
        <ele>1755.02</ele>
        <time>2021-01-07T10:33:44Z</time>
      </trkpt>
      <trkpt lat="44.36006" lon="7.33045">
        <ele>1754.54</ele>
        <time>2021-01-07T10:33:45Z</time>
      </trkpt>
      <trkpt lat="44.36009" lon="7.33044">
        <ele>1753.1</ele>
        <time>2021-01-07T10:33:46Z</time>
      </trkpt>
      <trkpt lat="44.36012" lon="7.33044">
        <ele>1752.14</ele>
        <time>2021-01-07T10:33:47Z</time>
      </trkpt>
      <trkpt lat="44.36014" lon="7.33048">
        <ele>1751.66</ele>
        <time>2021-01-07T10:33:48Z</time>
      </trkpt>
      <trkpt lat="44.36017" lon="7.33052">
        <ele>1750.7</ele>
        <time>2021-01-07T10:33:49Z</time>
      </trkpt>
      <trkpt lat="44.36019" lon="7.33056">
        <ele>1749.74</ele>
        <time>2021-01-07T10:33:50Z</time>
      </trkpt>
      <trkpt lat="44.36018" lon="7.33058">
        <ele>1749.26</ele>
        <time>2021-01-07T10:33:59Z</time>
      </trkpt>
      <trkpt lat="44.3602" lon="7.33059">
        <ele>1748.78</ele>
        <time>2021-01-07T10:34:02Z</time>
      </trkpt>
      <trkpt lat="44.36021" lon="7.33059">
        <ele>1748.78</ele>
        <time>2021-01-07T10:34:03Z</time>
      </trkpt>
      <trkpt lat="44.36023" lon="7.33058">
        <ele>1748.29</ele>
        <time>2021-01-07T10:34:04Z</time>
      </trkpt>
      <trkpt lat="44.36026" lon="7.33057">
        <ele>1747.81</ele>
        <time>2021-01-07T10:34:05Z</time>
      </trkpt>
      <trkpt lat="44.36028" lon="7.33055">
        <ele>1747.33</ele>
        <time>2021-01-07T10:34:06Z</time>
      </trkpt>
      <trkpt lat="44.3603" lon="7.33048">
        <ele>1745.89</ele>
        <time>2021-01-07T10:34:08Z</time>
      </trkpt>
      <trkpt lat="44.36046" lon="7.33059">
        <ele>1740.12</ele>
        <time>2021-01-07T10:34:14Z</time>
      </trkpt>
      <trkpt lat="44.36054" lon="7.33057">
        <ele>1737.24</ele>
        <time>2021-01-07T10:34:17Z</time>
      </trkpt>
      <trkpt lat="44.36071" lon="7.33055">
        <ele>1730.03</ele>
        <time>2021-01-07T10:34:24Z</time>
      </trkpt>
      <trkpt lat="44.36078" lon="7.33063">
        <ele>1726.67</ele>
        <time>2021-01-07T10:34:33Z</time>
      </trkpt>
      <trkpt lat="44.36079" lon="7.33063">
        <ele>1726.18</ele>
        <time>2021-01-07T10:34:47Z</time>
      </trkpt>
      <trkpt lat="44.36094" lon="7.33058">
        <ele>1717.53</ele>
        <time>2021-01-07T10:34:54Z</time>
      </trkpt>
      <trkpt lat="44.36104" lon="7.33055">
        <ele>1712.73</ele>
        <time>2021-01-07T10:34:58Z</time>
      </trkpt>
      <trkpt lat="44.36117" lon="7.3306">
        <ele>1707.44</ele>
        <time>2021-01-07T10:35:02Z</time>
      </trkpt>
      <trkpt lat="44.36142" lon="7.33074">
        <ele>1698.31</ele>
        <time>2021-01-07T10:35:09Z</time>
      </trkpt>
      <trkpt lat="44.36169" lon="7.331">
        <ele>1689.65</ele>
        <time>2021-01-07T10:35:19Z</time>
      </trkpt>
      <trkpt lat="44.3617" lon="7.33099">
        <ele>1689.17</ele>
        <time>2021-01-07T10:35:45Z</time>
      </trkpt>
      <trkpt lat="44.3617" lon="7.331">
        <ele>1688.69</ele>
        <time>2021-01-07T10:36:01Z</time>
      </trkpt>
      <trkpt lat="44.36171" lon="7.331">
        <ele>1689.17</ele>
        <time>2021-01-07T10:36:16Z</time>
      </trkpt>
      <trkpt lat="44.36172" lon="7.331">
        <ele>1688.69</ele>
        <time>2021-01-07T10:36:21Z</time>
      </trkpt>
      <trkpt lat="44.36187" lon="7.33087">
        <ele>1683.89</ele>
        <time>2021-01-07T10:36:28Z</time>
      </trkpt>
      <trkpt lat="44.36201" lon="7.33093">
        <ele>1679.08</ele>
        <time>2021-01-07T10:36:32Z</time>
      </trkpt>
      <trkpt lat="44.36231" lon="7.33111">
        <ele>1672.35</ele>
        <time>2021-01-07T10:36:45Z</time>
      </trkpt>
      <trkpt lat="44.36253" lon="7.33111">
        <ele>1664.66</ele>
        <time>2021-01-07T10:36:52Z</time>
      </trkpt>
      <trkpt lat="44.36262" lon="7.33119">
        <ele>1661.78</ele>
        <time>2021-01-07T10:36:55Z</time>
      </trkpt>
      <trkpt lat="44.3631" lon="7.33169">
        <ele>1650.72</ele>
        <time>2021-01-07T10:37:08Z</time>
      </trkpt>
      <trkpt lat="44.36326" lon="7.3318">
        <ele>1647.84</ele>
        <time>2021-01-07T10:37:11Z</time>
      </trkpt>
      <trkpt lat="44.36394" lon="7.33204">
        <ele>1643.51</ele>
        <time>2021-01-07T10:37:23Z</time>
      </trkpt>
      <trkpt lat="44.3641" lon="7.33209">
        <ele>1643.99</ele>
        <time>2021-01-07T10:37:33Z</time>
      </trkpt>
      <trkpt lat="44.36415" lon="7.33211">
        <ele>1643.99</ele>
        <time>2021-01-07T10:37:43Z</time>
      </trkpt>
      <trkpt lat="44.36422" lon="7.33213">
        <ele>1643.99</ele>
        <time>2021-01-07T10:37:54Z</time>
      </trkpt>
      <trkpt lat="44.36428" lon="7.33215">
        <ele>1644.47</ele>
        <time>2021-01-07T10:38:04Z</time>
      </trkpt>
      <trkpt lat="44.36434" lon="7.33217">
        <ele>1644.95</ele>
        <time>2021-01-07T10:38:13Z</time>
      </trkpt>
      <trkpt lat="44.36435" lon="7.33217">
        <ele>1644.95</ele>
        <time>2021-01-07T10:38:24Z</time>
      </trkpt>
      <trkpt lat="44.36435" lon="7.33218">
        <ele>1643.51</ele>
        <time>2021-01-07T10:38:45Z</time>
      </trkpt>
      <trkpt lat="44.36434" lon="7.33218">
        <ele>1643.03</ele>
        <time>2021-01-07T10:39:07Z</time>
      </trkpt>
      <trkpt lat="44.36435" lon="7.33218">
        <ele>1642.55</ele>
        <time>2021-01-07T10:39:38Z</time>
      </trkpt>
      <trkpt lat="44.36435" lon="7.33219">
        <ele>1642.07</ele>
        <time>2021-01-07T10:39:52Z</time>
      </trkpt>
      <trkpt lat="44.36438" lon="7.33219">
        <ele>1643.03</ele>
        <time>2021-01-07T10:40:02Z</time>
      </trkpt>
      <trkpt lat="44.36448" lon="7.33222">
        <ele>1643.99</ele>
        <time>2021-01-07T10:40:14Z</time>
      </trkpt>
      <trkpt lat="44.36457" lon="7.33224">
        <ele>1644.47</ele>
        <time>2021-01-07T10:40:25Z</time>
      </trkpt>
      <trkpt lat="44.36482" lon="7.33228">
        <ele>1644.47</ele>
        <time>2021-01-07T10:40:40Z</time>
      </trkpt>
      <trkpt lat="44.3649" lon="7.33231">
        <ele>1642.07</ele>
        <time>2021-01-07T10:40:53Z</time>
      </trkpt>
      <trkpt lat="44.36491" lon="7.33232">
        <ele>1641.59</ele>
        <time>2021-01-07T10:41:04Z</time>
      </trkpt>
      <trkpt lat="44.36491" lon="7.33231">
        <ele>1642.55</ele>
        <time>2021-01-07T10:41:09Z</time>
      </trkpt>
      <trkpt lat="44.36493" lon="7.3323">
        <ele>1642.55</ele>
        <time>2021-01-07T10:41:10Z</time>
      </trkpt>
      <trkpt lat="44.36521" lon="7.33236">
        <ele>1642.07</ele>
        <time>2021-01-07T10:41:23Z</time>
      </trkpt>
      <trkpt lat="44.36564" lon="7.33247">
        <ele>1640.63</ele>
        <time>2021-01-07T10:41:38Z</time>
      </trkpt>
      <trkpt lat="44.36603" lon="7.33265">
        <ele>1637.74</ele>
        <time>2021-01-07T10:41:55Z</time>
      </trkpt>
      <trkpt lat="44.36621" lon="7.33279">
        <ele>1636.78</ele>
        <time>2021-01-07T10:42:11Z</time>
      </trkpt>
      <trkpt lat="44.36629" lon="7.33293">
        <ele>1635.34</ele>
        <time>2021-01-07T10:42:24Z</time>
      </trkpt>
      <trkpt lat="44.36639" lon="7.33308">
        <ele>1632.46</ele>
        <time>2021-01-07T10:42:32Z</time>
      </trkpt>
      <trkpt lat="44.36637" lon="7.33342">
        <ele>1624.28</ele>
        <time>2021-01-07T10:42:39Z</time>
      </trkpt>
      <trkpt lat="44.36637" lon="7.33342">
        <ele>1624.28</ele>
        <time>2021-01-07T10:42:50Z</time>
      </trkpt>
      <trkpt lat="44.3664" lon="7.33371">
        <ele>1621.4</ele>
        <time>2021-01-07T10:42:57Z</time>
      </trkpt>
      <trkpt lat="44.3664" lon="7.33397">
        <ele>1612.75</ele>
        <time>2021-01-07T10:43:03Z</time>
      </trkpt>
      <trkpt lat="44.36638" lon="7.33398">
        <ele>1611.79</ele>
        <time>2021-01-07T10:43:15Z</time>
      </trkpt>
      <trkpt lat="44.36638" lon="7.33398">
        <ele>1613.23</ele>
        <time>2021-01-07T10:43:30Z</time>
      </trkpt>
      <trkpt lat="44.36637" lon="7.33396">
        <ele>1614.67</ele>
        <time>2021-01-07T10:43:49Z</time>
      </trkpt>
      <trkpt lat="44.36637" lon="7.33396">
        <ele>1616.11</ele>
        <time>2021-01-07T10:44:15Z</time>
      </trkpt>
      <trkpt lat="44.36637" lon="7.33397">
        <ele>1617.07</ele>
        <time>2021-01-07T10:44:43Z</time>
      </trkpt>
      <trkpt lat="44.36637" lon="7.33396">
        <ele>1616.11</ele>
        <time>2021-01-07T10:45:07Z</time>
      </trkpt>
      <trkpt lat="44.36637" lon="7.33399">
        <ele>1615.63</ele>
        <time>2021-01-07T10:45:21Z</time>
      </trkpt>
      <trkpt lat="44.36639" lon="7.334">
        <ele>1615.15</ele>
        <time>2021-01-07T10:45:41Z</time>
      </trkpt>
      <trkpt lat="44.36637" lon="7.33402">
        <ele>1615.15</ele>
        <time>2021-01-07T10:45:51Z</time>
      </trkpt>
      <trkpt lat="44.36632" lon="7.33412">
        <ele>1612.75</ele>
        <time>2021-01-07T10:45:54Z</time>
      </trkpt>
      <trkpt lat="44.36633" lon="7.33416">
        <ele>1611.79</ele>
        <time>2021-01-07T10:45:55Z</time>
      </trkpt>
      <trkpt lat="44.36635" lon="7.33419">
        <ele>1610.83</ele>
        <time>2021-01-07T10:45:56Z</time>
      </trkpt>
      <trkpt lat="44.36636" lon="7.3342">
        <ele>1609.86</ele>
        <time>2021-01-07T10:45:57Z</time>
      </trkpt>
      <trkpt lat="44.36639" lon="7.3342">
        <ele>1606.98</ele>
        <time>2021-01-07T10:46:11Z</time>
      </trkpt>
      <trkpt lat="44.36652" lon="7.3343">
        <ele>1605.06</ele>
        <time>2021-01-07T10:46:18Z</time>
      </trkpt>
      <trkpt lat="44.36656" lon="7.33435">
        <ele>1604.58</ele>
        <time>2021-01-07T10:46:19Z</time>
      </trkpt>
      <trkpt lat="44.36675" lon="7.33453">
        <ele>1597.37</ele>
        <time>2021-01-07T10:46:29Z</time>
      </trkpt>
      <trkpt lat="44.36674" lon="7.33453">
        <ele>1597.37</ele>
        <time>2021-01-07T10:46:42Z</time>
      </trkpt>
      <trkpt lat="44.36679" lon="7.33456">
        <ele>1596.89</ele>
        <time>2021-01-07T10:47:02Z</time>
      </trkpt>
      <trkpt lat="44.36684" lon="7.33461">
        <ele>1595.93</ele>
        <time>2021-01-07T10:47:04Z</time>
      </trkpt>
      <trkpt lat="44.36706" lon="7.33472">
        <ele>1588.24</ele>
        <time>2021-01-07T10:47:13Z</time>
      </trkpt>
      <trkpt lat="44.36711" lon="7.33473">
        <ele>1587.27</ele>
        <time>2021-01-07T10:47:15Z</time>
      </trkpt>
      <trkpt lat="44.36715" lon="7.33484">
        <ele>1584.87</ele>
        <time>2021-01-07T10:47:24Z</time>
      </trkpt>
      <trkpt lat="44.36712" lon="7.33491">
        <ele>1582.95</ele>
        <time>2021-01-07T10:47:29Z</time>
      </trkpt>
      <trkpt lat="44.36708" lon="7.33496">
        <ele>1581.99</ele>
        <time>2021-01-07T10:47:43Z</time>
      </trkpt>
      <trkpt lat="44.36709" lon="7.33497">
        <ele>1581.03</ele>
        <time>2021-01-07T10:47:53Z</time>
      </trkpt>
      <trkpt lat="44.3671" lon="7.335">
        <ele>1580.54</ele>
        <time>2021-01-07T10:47:57Z</time>
      </trkpt>
      <trkpt lat="44.36715" lon="7.33504">
        <ele>1579.58</ele>
        <time>2021-01-07T10:48:05Z</time>
      </trkpt>
      <trkpt lat="44.36715" lon="7.33505">
        <ele>1578.62</ele>
        <time>2021-01-07T10:48:08Z</time>
      </trkpt>
      <trkpt lat="44.3672" lon="7.33512">
        <ele>1578.14</ele>
        <time>2021-01-07T10:48:17Z</time>
      </trkpt>
      <trkpt lat="44.36727" lon="7.33516">
        <ele>1576.7</ele>
        <time>2021-01-07T10:48:29Z</time>
      </trkpt>
      <trkpt lat="44.36727" lon="7.3352">
        <ele>1576.22</ele>
        <time>2021-01-07T10:48:32Z</time>
      </trkpt>
      <trkpt lat="44.36724" lon="7.33527">
        <ele>1575.26</ele>
        <time>2021-01-07T10:48:35Z</time>
      </trkpt>
      <trkpt lat="44.36716" lon="7.33547">
        <ele>1572.37</ele>
        <time>2021-01-07T10:48:43Z</time>
      </trkpt>
      <trkpt lat="44.36715" lon="7.33548">
        <ele>1571.89</ele>
        <time>2021-01-07T10:48:44Z</time>
      </trkpt>
      <trkpt lat="44.36716" lon="7.33557">
        <ele>1569.97</ele>
        <time>2021-01-07T10:48:51Z</time>
      </trkpt>
      <trkpt lat="44.36719" lon="7.3356">
        <ele>1569.01</ele>
        <time>2021-01-07T10:49:03Z</time>
      </trkpt>
      <trkpt lat="44.3672" lon="7.33564">
        <ele>1569.49</ele>
        <time>2021-01-07T10:49:13Z</time>
      </trkpt>
      <trkpt lat="44.36719" lon="7.33566">
        <ele>1568.53</ele>
        <time>2021-01-07T10:49:26Z</time>
      </trkpt>
      <trkpt lat="44.36721" lon="7.33572">
        <ele>1567.57</ele>
        <time>2021-01-07T10:49:37Z</time>
      </trkpt>
      <trkpt lat="44.36722" lon="7.33572">
        <ele>1566.61</ele>
        <time>2021-01-07T10:49:38Z</time>
      </trkpt>
      <trkpt lat="44.36716" lon="7.33582">
        <ele>1562.28</ele>
        <time>2021-01-07T10:49:49Z</time>
      </trkpt>
      <trkpt lat="44.36715" lon="7.33582">
        <ele>1561.8</ele>
        <time>2021-01-07T10:49:50Z</time>
      </trkpt>
      <trkpt lat="44.36713" lon="7.33581">
        <ele>1560.84</ele>
        <time>2021-01-07T10:49:52Z</time>
      </trkpt>
      <trkpt lat="44.3671" lon="7.33586">
        <ele>1557.95</ele>
        <time>2021-01-07T10:49:56Z</time>
      </trkpt>
      <trkpt lat="44.36704" lon="7.33588">
        <ele>1552.67</ele>
        <time>2021-01-07T10:50:09Z</time>
      </trkpt>
      <trkpt lat="44.36707" lon="7.33594">
        <ele>1550.26</ele>
        <time>2021-01-07T10:50:15Z</time>
      </trkpt>
      <trkpt lat="44.36709" lon="7.33596">
        <ele>1549.78</ele>
        <time>2021-01-07T10:50:17Z</time>
      </trkpt>
      <trkpt lat="44.36698" lon="7.3361">
        <ele>1543.53</ele>
        <time>2021-01-07T10:50:24Z</time>
      </trkpt>
      <trkpt lat="44.36688" lon="7.33612">
        <ele>1539.69</ele>
        <time>2021-01-07T10:50:28Z</time>
      </trkpt>
      <trkpt lat="44.36684" lon="7.3361">
        <ele>1537.77</ele>
        <time>2021-01-07T10:50:33Z</time>
      </trkpt>
      <trkpt lat="44.36674" lon="7.33613">
        <ele>1532.96</ele>
        <time>2021-01-07T10:50:41Z</time>
      </trkpt>
      <trkpt lat="44.36673" lon="7.3363">
        <ele>1531.04</ele>
        <time>2021-01-07T10:50:45Z</time>
      </trkpt>
      <trkpt lat="44.36671" lon="7.33665">
        <ele>1519.98</ele>
        <time>2021-01-07T10:50:52Z</time>
      </trkpt>
      <trkpt lat="44.3667" lon="7.3366">
        <ele>1514.21</ele>
        <time>2021-01-07T10:51:06Z</time>
      </trkpt>
      <trkpt lat="44.36672" lon="7.33661">
        <ele>1511.33</ele>
        <time>2021-01-07T10:51:22Z</time>
      </trkpt>
      <trkpt lat="44.36677" lon="7.33665">
        <ele>1511.33</ele>
        <time>2021-01-07T10:51:39Z</time>
      </trkpt>
      <trkpt lat="44.36681" lon="7.33672">
        <ele>1510.37</ele>
        <time>2021-01-07T10:51:55Z</time>
      </trkpt>
      <trkpt lat="44.36692" lon="7.33686">
        <ele>1510.85</ele>
        <time>2021-01-07T10:52:04Z</time>
      </trkpt>
      <trkpt lat="44.36695" lon="7.33703">
        <ele>1511.33</ele>
        <time>2021-01-07T10:52:14Z</time>
      </trkpt>
      <trkpt lat="44.367" lon="7.33707">
        <ele>1509.41</ele>
        <time>2021-01-07T10:52:28Z</time>
      </trkpt>
      <trkpt lat="44.36717" lon="7.33724">
        <ele>1509.89</ele>
        <time>2021-01-07T10:52:39Z</time>
      </trkpt>
      <trkpt lat="44.36721" lon="7.33728">
        <ele>1507.97</ele>
        <time>2021-01-07T10:52:51Z</time>
      </trkpt>
      <trkpt lat="44.36722" lon="7.33727">
        <ele>1504.12</ele>
        <time>2021-01-07T10:53:10Z</time>
      </trkpt>
      <trkpt lat="44.36729" lon="7.33734">
        <ele>1502.2</ele>
        <time>2021-01-07T10:53:16Z</time>
      </trkpt>
      <trkpt lat="44.36736" lon="7.33746">
        <ele>1498.83</ele>
        <time>2021-01-07T10:53:20Z</time>
      </trkpt>
      <trkpt lat="44.3675" lon="7.33771">
        <ele>1492.1</ele>
        <time>2021-01-07T10:53:27Z</time>
      </trkpt>
      <trkpt lat="44.36752" lon="7.33775">
        <ele>1491.14</ele>
        <time>2021-01-07T10:53:28Z</time>
      </trkpt>
      <trkpt lat="44.36762" lon="7.3379">
        <ele>1487.3</ele>
        <time>2021-01-07T10:53:32Z</time>
      </trkpt>
      <trkpt lat="44.36768" lon="7.33799">
        <ele>1484.89</ele>
        <time>2021-01-07T10:53:34Z</time>
      </trkpt>
      <trkpt lat="44.36771" lon="7.33801">
        <ele>1483.45</ele>
        <time>2021-01-07T10:53:35Z</time>
      </trkpt>
      <trkpt lat="44.36774" lon="7.33801">
        <ele>1482.49</ele>
        <time>2021-01-07T10:53:36Z</time>
      </trkpt>
      <trkpt lat="44.36776" lon="7.338">
        <ele>1479.61</ele>
        <time>2021-01-07T10:53:43Z</time>
      </trkpt>
      <trkpt lat="44.36781" lon="7.33803">
        <ele>1477.2</ele>
        <time>2021-01-07T10:53:51Z</time>
      </trkpt>
      <trkpt lat="44.36797" lon="7.33808">
        <ele>1473.36</ele>
        <time>2021-01-07T10:53:59Z</time>
      </trkpt>
      <trkpt lat="44.36799" lon="7.33807">
        <ele>1472.4</ele>
        <time>2021-01-07T10:54:01Z</time>
      </trkpt>
      <trkpt lat="44.368" lon="7.3381">
        <ele>1471.44</ele>
        <time>2021-01-07T10:54:03Z</time>
      </trkpt>
      <trkpt lat="44.36801" lon="7.33813">
        <ele>1471.44</ele>
        <time>2021-01-07T10:54:04Z</time>
      </trkpt>
      <trkpt lat="44.36801" lon="7.33816">
        <ele>1470.95</ele>
        <time>2021-01-07T10:54:05Z</time>
      </trkpt>
      <trkpt lat="44.36801" lon="7.33819">
        <ele>1470.47</ele>
        <time>2021-01-07T10:54:06Z</time>
      </trkpt>
      <trkpt lat="44.36801" lon="7.33822">
        <ele>1469.99</ele>
        <time>2021-01-07T10:54:07Z</time>
      </trkpt>
      <trkpt lat="44.368" lon="7.33825">
        <ele>1469.51</ele>
        <time>2021-01-07T10:54:08Z</time>
      </trkpt>
      <trkpt lat="44.36799" lon="7.33831">
        <ele>1468.55</ele>
        <time>2021-01-07T10:54:10Z</time>
      </trkpt>
      <trkpt lat="44.36799" lon="7.33835">
        <ele>1468.07</ele>
        <time>2021-01-07T10:54:11Z</time>
      </trkpt>
      <trkpt lat="44.36799" lon="7.33838">
        <ele>1468.07</ele>
        <time>2021-01-07T10:54:12Z</time>
      </trkpt>
      <trkpt lat="44.36806" lon="7.33855">
        <ele>1466.15</ele>
        <time>2021-01-07T10:54:15Z</time>
      </trkpt>
      <trkpt lat="44.36809" lon="7.33863">
        <ele>1465.19</ele>
        <time>2021-01-07T10:54:16Z</time>
      </trkpt>
      <trkpt lat="44.36815" lon="7.33878">
        <ele>1463.26</ele>
        <time>2021-01-07T10:54:18Z</time>
      </trkpt>
      <trkpt lat="44.36827" lon="7.3391">
        <ele>1457.98</ele>
        <time>2021-01-07T10:54:26Z</time>
      </trkpt>
      <trkpt lat="44.36837" lon="7.33926">
        <ele>1455.09</ele>
        <time>2021-01-07T10:54:38Z</time>
      </trkpt>
      <trkpt lat="44.36841" lon="7.33934">
        <ele>1455.09</ele>
        <time>2021-01-07T10:54:50Z</time>
      </trkpt>
      <trkpt lat="44.36842" lon="7.33934">
        <ele>1455.09</ele>
        <time>2021-01-07T10:54:51Z</time>
      </trkpt>
      <trkpt lat="44.36844" lon="7.33939">
        <ele>1455.09</ele>
        <time>2021-01-07T10:54:58Z</time>
      </trkpt>
      <trkpt lat="44.3685" lon="7.3395">
        <ele>1454.61</ele>
        <time>2021-01-07T10:55:11Z</time>
      </trkpt>
      <trkpt lat="44.36852" lon="7.33953">
        <ele>1454.13</ele>
        <time>2021-01-07T10:55:15Z</time>
      </trkpt>
      <trkpt lat="44.36854" lon="7.33961">
        <ele>1453.65</ele>
        <time>2021-01-07T10:55:25Z</time>
      </trkpt>
      <trkpt lat="44.36856" lon="7.3397">
        <ele>1453.17</ele>
        <time>2021-01-07T10:55:37Z</time>
      </trkpt>
      <trkpt lat="44.36858" lon="7.33974">
        <ele>1452.69</ele>
        <time>2021-01-07T10:55:44Z</time>
      </trkpt>
      <trkpt lat="44.36858" lon="7.33978">
        <ele>1452.69</ele>
        <time>2021-01-07T10:55:54Z</time>
      </trkpt>
      <trkpt lat="44.36859" lon="7.3398">
        <ele>1453.17</ele>
        <time>2021-01-07T10:56:03Z</time>
      </trkpt>
      <trkpt lat="44.36863" lon="7.33988">
        <ele>1454.61</ele>
        <time>2021-01-07T10:56:13Z</time>
      </trkpt>
      <trkpt lat="44.36863" lon="7.33991">
        <ele>1454.13</ele>
        <time>2021-01-07T10:56:24Z</time>
      </trkpt>
      <trkpt lat="44.36864" lon="7.33996">
        <ele>1454.13</ele>
        <time>2021-01-07T10:56:35Z</time>
      </trkpt>
      <trkpt lat="44.36865" lon="7.34002">
        <ele>1454.61</ele>
        <time>2021-01-07T10:56:45Z</time>
      </trkpt>
      <trkpt lat="44.36876" lon="7.34018">
        <ele>1454.61</ele>
        <time>2021-01-07T10:56:57Z</time>
      </trkpt>
      <trkpt lat="44.36892" lon="7.34052">
        <ele>1455.09</ele>
        <time>2021-01-07T10:57:09Z</time>
      </trkpt>
      <trkpt lat="44.369" lon="7.34093">
        <ele>1455.57</ele>
        <time>2021-01-07T10:57:21Z</time>
      </trkpt>
      <trkpt lat="44.36909" lon="7.3413">
        <ele>1457.98</ele>
        <time>2021-01-07T10:57:32Z</time>
      </trkpt>
      <trkpt lat="44.36912" lon="7.34144">
        <ele>1459.42</ele>
        <time>2021-01-07T10:57:39Z</time>
      </trkpt>
      <trkpt lat="44.36912" lon="7.34147">
        <ele>1459.42</ele>
        <time>2021-01-07T10:57:40Z</time>
      </trkpt>
      <trkpt lat="44.36911" lon="7.3415">
        <ele>1459.42</ele>
        <time>2021-01-07T10:57:41Z</time>
      </trkpt>
      <trkpt lat="44.36911" lon="7.34154">
        <ele>1458.94</ele>
        <time>2021-01-07T10:57:42Z</time>
      </trkpt>
      <trkpt lat="44.36911" lon="7.34159">
        <ele>1458.94</ele>
        <time>2021-01-07T10:57:43Z</time>
      </trkpt>
      <trkpt lat="44.36904" lon="7.34202">
        <ele>1456.05</ele>
        <time>2021-01-07T10:57:56Z</time>
      </trkpt>
      <trkpt lat="44.36889" lon="7.34238">
        <ele>1453.17</ele>
        <time>2021-01-07T10:58:09Z</time>
      </trkpt>
      <trkpt lat="44.36886" lon="7.34247">
        <ele>1453.17</ele>
        <time>2021-01-07T10:58:14Z</time>
      </trkpt>
      <trkpt lat="44.36885" lon="7.34248">
        <ele>1453.17</ele>
        <time>2021-01-07T10:58:15Z</time>
      </trkpt>
      <trkpt lat="44.36884" lon="7.3425">
        <ele>1453.17</ele>
        <time>2021-01-07T10:58:17Z</time>
      </trkpt>
      <trkpt lat="44.36871" lon="7.34254">
        <ele>1451.73</ele>
        <time>2021-01-07T10:58:27Z</time>
      </trkpt>
      <trkpt lat="44.3687" lon="7.34255">
        <ele>1451.25</ele>
        <time>2021-01-07T10:58:28Z</time>
      </trkpt>
      <trkpt lat="44.36859" lon="7.34263">
        <ele>1450.29</ele>
        <time>2021-01-07T10:58:33Z</time>
      </trkpt>
      <trkpt lat="44.36855" lon="7.34271">
        <ele>1449.81</ele>
        <time>2021-01-07T10:58:45Z</time>
      </trkpt>
      <trkpt lat="44.36846" lon="7.3429">
        <ele>1449.81</ele>
        <time>2021-01-07T10:58:57Z</time>
      </trkpt>
      <trkpt lat="44.36845" lon="7.34301">
        <ele>1452.21</ele>
        <time>2021-01-07T10:59:09Z</time>
      </trkpt>
      <trkpt lat="44.36845" lon="7.34311">
        <ele>1455.09</ele>
        <time>2021-01-07T10:59:14Z</time>
      </trkpt>
      <trkpt lat="44.36845" lon="7.34314">
        <ele>1456.05</ele>
        <time>2021-01-07T10:59:16Z</time>
      </trkpt>
      <trkpt lat="44.36845" lon="7.34316">
        <ele>1456.53</ele>
        <time>2021-01-07T10:59:17Z</time>
      </trkpt>
      <trkpt lat="44.36834" lon="7.34322">
        <ele>1456.53</ele>
        <time>2021-01-07T10:59:27Z</time>
      </trkpt>
      <trkpt lat="44.36829" lon="7.34325">
        <ele>1458.94</ele>
        <time>2021-01-07T11:00:03Z</time>
      </trkpt>
      <trkpt lat="44.36829" lon="7.34328">
        <ele>1460.38</ele>
        <time>2021-01-07T11:00:15Z</time>
      </trkpt>
      <trkpt lat="44.36822" lon="7.34334">
        <ele>1454.61</ele>
        <time>2021-01-07T11:00:19Z</time>
      </trkpt>
      <trkpt lat="44.36806" lon="7.34358">
        <ele>1440.67</ele>
        <time>2021-01-07T11:00:25Z</time>
      </trkpt>
      <trkpt lat="44.36797" lon="7.34365">
        <ele>1434.91</ele>
        <time>2021-01-07T11:00:28Z</time>
      </trkpt>
      <trkpt lat="44.3677" lon="7.3439">
        <ele>1419.04</ele>
        <time>2021-01-07T11:00:36Z</time>
      </trkpt>
      <trkpt lat="44.36756" lon="7.34409">
        <ele>1410.87</ele>
        <time>2021-01-07T11:00:42Z</time>
      </trkpt>
      <trkpt lat="44.36755" lon="7.34409">
        <ele>1405.1</ele>
        <time>2021-01-07T11:00:54Z</time>
      </trkpt>
      <trkpt lat="44.36756" lon="7.34409">
        <ele>1406.07</ele>
        <time>2021-01-07T11:01:07Z</time>
      </trkpt>
      <trkpt lat="44.36758" lon="7.34409">
        <ele>1406.07</ele>
        <time>2021-01-07T11:01:29Z</time>
      </trkpt>
      <trkpt lat="44.36757" lon="7.3441">
        <ele>1405.58</ele>
        <time>2021-01-07T11:01:31Z</time>
      </trkpt>
      <trkpt lat="44.36753" lon="7.34421">
        <ele>1403.66</ele>
        <time>2021-01-07T11:01:35Z</time>
      </trkpt>
      <trkpt lat="44.36749" lon="7.34427">
        <ele>1401.74</ele>
        <time>2021-01-07T11:01:37Z</time>
      </trkpt>
      <trkpt lat="44.36746" lon="7.34429">
        <ele>1400.78</ele>
        <time>2021-01-07T11:01:38Z</time>
      </trkpt>
      <trkpt lat="44.36744" lon="7.34432">
        <ele>1399.82</ele>
        <time>2021-01-07T11:01:39Z</time>
      </trkpt>
      <trkpt lat="44.36741" lon="7.34435">
        <ele>1399.34</ele>
        <time>2021-01-07T11:01:40Z</time>
      </trkpt>
      <trkpt lat="44.36738" lon="7.34439">
        <ele>1398.37</ele>
        <time>2021-01-07T11:01:41Z</time>
      </trkpt>
      <trkpt lat="44.36734" lon="7.34442">
        <ele>1396.93</ele>
        <time>2021-01-07T11:01:42Z</time>
      </trkpt>
      <trkpt lat="44.3673" lon="7.34445">
        <ele>1395.49</ele>
        <time>2021-01-07T11:01:43Z</time>
      </trkpt>
      <trkpt lat="44.36726" lon="7.34447">
        <ele>1393.57</ele>
        <time>2021-01-07T11:01:44Z</time>
      </trkpt>
      <trkpt lat="44.36722" lon="7.34447">
        <ele>1392.13</ele>
        <time>2021-01-07T11:01:45Z</time>
      </trkpt>
      <trkpt lat="44.36718" lon="7.34449">
        <ele>1390.68</ele>
        <time>2021-01-07T11:01:46Z</time>
      </trkpt>
      <trkpt lat="44.36715" lon="7.34451">
        <ele>1389.72</ele>
        <time>2021-01-07T11:01:47Z</time>
      </trkpt>
      <trkpt lat="44.36698" lon="7.34452">
        <ele>1383.96</ele>
        <time>2021-01-07T11:01:53Z</time>
      </trkpt>
      <trkpt lat="44.36699" lon="7.34455">
        <ele>1383.96</ele>
        <time>2021-01-07T11:02:09Z</time>
      </trkpt>
      <trkpt lat="44.367" lon="7.34456">
        <ele>1386.84</ele>
        <time>2021-01-07T11:02:29Z</time>
      </trkpt>
      <trkpt lat="44.367" lon="7.34457">
        <ele>1387.8</ele>
        <time>2021-01-07T11:02:42Z</time>
      </trkpt>
      <trkpt lat="44.36698" lon="7.34454">
        <ele>1386.84</ele>
        <time>2021-01-07T11:02:46Z</time>
      </trkpt>
      <trkpt lat="44.36693" lon="7.34453">
        <ele>1383.96</ele>
        <time>2021-01-07T11:02:55Z</time>
      </trkpt>
      <trkpt lat="44.36692" lon="7.34453">
        <ele>1384.44</ele>
        <time>2021-01-07T11:03:00Z</time>
      </trkpt>
      <trkpt lat="44.36688" lon="7.34456">
        <ele>1384.44</ele>
        <time>2021-01-07T11:03:08Z</time>
      </trkpt>
      <trkpt lat="44.36687" lon="7.34454">
        <ele>1384.44</ele>
        <time>2021-01-07T11:03:12Z</time>
      </trkpt>
      <trkpt lat="44.36683" lon="7.34447">
        <ele>1383.96</ele>
        <time>2021-01-07T11:03:21Z</time>
      </trkpt>
      <trkpt lat="44.36683" lon="7.34446">
        <ele>1383.47</ele>
        <time>2021-01-07T11:03:23Z</time>
      </trkpt>
      <trkpt lat="44.36679" lon="7.3444">
        <ele>1381.55</ele>
        <time>2021-01-07T11:03:31Z</time>
      </trkpt>
      <trkpt lat="44.36669" lon="7.34423">
        <ele>1379.15</ele>
        <time>2021-01-07T11:03:37Z</time>
      </trkpt>
      <trkpt lat="44.3666" lon="7.34403">
        <ele>1376.26</ele>
        <time>2021-01-07T11:03:41Z</time>
      </trkpt>
      <trkpt lat="44.36627" lon="7.34377">
        <ele>1369.54</ele>
        <time>2021-01-07T11:03:51Z</time>
      </trkpt>
      <trkpt lat="44.36622" lon="7.34373">
        <ele>1367.61</ele>
        <time>2021-01-07T11:03:54Z</time>
      </trkpt>
      <trkpt lat="44.36608" lon="7.34383">
        <ele>1360.4</ele>
        <time>2021-01-07T11:04:02Z</time>
      </trkpt>
      <trkpt lat="44.36585" lon="7.34362">
        <ele>1355.12</ele>
        <time>2021-01-07T11:04:12Z</time>
      </trkpt>
      <trkpt lat="44.3657" lon="7.34346">
        <ele>1350.79</ele>
        <time>2021-01-07T11:04:24Z</time>
      </trkpt>
      <trkpt lat="44.36549" lon="7.3432">
        <ele>1347.43</ele>
        <time>2021-01-07T11:04:37Z</time>
      </trkpt>
      <trkpt lat="44.36547" lon="7.34312">
        <ele>1346.94</ele>
        <time>2021-01-07T11:04:46Z</time>
      </trkpt>
      <trkpt lat="44.36544" lon="7.34299">
        <ele>1344.54</ele>
        <time>2021-01-07T11:04:54Z</time>
      </trkpt>
      <trkpt lat="44.36541" lon="7.34299">
        <ele>1343.58</ele>
        <time>2021-01-07T11:04:56Z</time>
      </trkpt>
      <trkpt lat="44.36538" lon="7.34294">
        <ele>1342.14</ele>
        <time>2021-01-07T11:05:00Z</time>
      </trkpt>
      <trkpt lat="44.3653" lon="7.34303">
        <ele>1341.66</ele>
        <time>2021-01-07T11:05:05Z</time>
      </trkpt>
      <trkpt lat="44.36528" lon="7.34296">
        <ele>1342.14</ele>
        <time>2021-01-07T11:05:07Z</time>
      </trkpt>
      <trkpt lat="44.36526" lon="7.34292">
        <ele>1342.62</ele>
        <time>2021-01-07T11:05:10Z</time>
      </trkpt>
      <trkpt lat="44.36522" lon="7.34297">
        <ele>1340.7</ele>
        <time>2021-01-07T11:05:14Z</time>
      </trkpt>
      <trkpt lat="44.36515" lon="7.34305">
        <ele>1338.77</ele>
        <time>2021-01-07T11:05:17Z</time>
      </trkpt>
      <trkpt lat="44.36513" lon="7.34306">
        <ele>1335.41</ele>
        <time>2021-01-07T11:05:28Z</time>
      </trkpt>
      <trkpt lat="44.36514" lon="7.34305">
        <ele>1334.45</ele>
        <time>2021-01-07T11:05:45Z</time>
      </trkpt>
      <trkpt lat="44.36513" lon="7.34304">
        <ele>1333.97</ele>
        <time>2021-01-07T11:06:00Z</time>
      </trkpt>
      <trkpt lat="44.36512" lon="7.34304">
        <ele>1334.45</ele>
        <time>2021-01-07T11:06:04Z</time>
      </trkpt>
      <trkpt lat="44.36517" lon="7.34309">
        <ele>1334.93</ele>
        <time>2021-01-07T11:06:08Z</time>
      </trkpt>
      <trkpt lat="44.36534" lon="7.34354">
        <ele>1335.41</ele>
        <time>2021-01-07T11:06:21Z</time>
      </trkpt>
      <trkpt lat="44.36546" lon="7.34393">
        <ele>1342.62</ele>
        <time>2021-01-07T11:06:34Z</time>
      </trkpt>
      <trkpt lat="44.3655" lon="7.34421">
        <ele>1352.23</ele>
        <time>2021-01-07T11:06:48Z</time>
      </trkpt>
      <trkpt lat="44.3655" lon="7.34422">
        <ele>1354.63</ele>
        <time>2021-01-07T11:07:01Z</time>
      </trkpt>
      <trkpt lat="44.36555" lon="7.34441">
        <ele>1355.12</ele>
        <time>2021-01-07T11:07:14Z</time>
      </trkpt>
      <trkpt lat="44.36568" lon="7.34497">
        <ele>1357.04</ele>
        <time>2021-01-07T11:07:25Z</time>
      </trkpt>
      <trkpt lat="44.36569" lon="7.34503">
        <ele>1357.52</ele>
        <time>2021-01-07T11:07:26Z</time>
      </trkpt>
      <trkpt lat="44.36569" lon="7.3451">
        <ele>1358</ele>
        <time>2021-01-07T11:07:27Z</time>
      </trkpt>
      <trkpt lat="44.36569" lon="7.34536">
        <ele>1358.96</ele>
        <time>2021-01-07T11:07:31Z</time>
      </trkpt>
      <trkpt lat="44.36568" lon="7.34542">
        <ele>1358.96</ele>
        <time>2021-01-07T11:07:32Z</time>
      </trkpt>
      <trkpt lat="44.36567" lon="7.34546">
        <ele>1359.44</ele>
        <time>2021-01-07T11:07:33Z</time>
      </trkpt>
      <trkpt lat="44.36556" lon="7.34601">
        <ele>1338.29</ele>
        <time>2021-01-07T11:07:45Z</time>
      </trkpt>
      <trkpt lat="44.36555" lon="7.34604">
        <ele>1336.37</ele>
        <time>2021-01-07T11:07:46Z</time>
      </trkpt>
      <trkpt lat="44.36555" lon="7.34607">
        <ele>1334.93</ele>
        <time>2021-01-07T11:07:47Z</time>
      </trkpt>
      <trkpt lat="44.36556" lon="7.34609">
        <ele>1321.95</ele>
        <time>2021-01-07T11:07:59Z</time>
      </trkpt>
      <trkpt lat="44.36555" lon="7.3461">
        <ele>1315.22</ele>
        <time>2021-01-07T11:08:15Z</time>
      </trkpt>
      <trkpt lat="44.36554" lon="7.34611">
        <ele>1313.78</ele>
        <time>2021-01-07T11:08:28Z</time>
      </trkpt>
      <trkpt lat="44.36552" lon="7.34612">
        <ele>1310.41</ele>
        <time>2021-01-07T11:08:45Z</time>
      </trkpt>
      <trkpt lat="44.36554" lon="7.3461">
        <ele>1306.57</ele>
        <time>2021-01-07T11:09:10Z</time>
      </trkpt>
      <trkpt lat="44.36553" lon="7.34607">
        <ele>1301.28</ele>
        <time>2021-01-07T11:09:43Z</time>
      </trkpt>
      <trkpt lat="44.36547" lon="7.34618">
        <ele>1300.8</ele>
        <time>2021-01-07T11:09:57Z</time>
      </trkpt>
      <trkpt lat="44.36542" lon="7.34627">
        <ele>1300.32</ele>
        <time>2021-01-07T11:09:59Z</time>
      </trkpt>
      <trkpt lat="44.36539" lon="7.34631">
        <ele>1299.36</ele>
        <time>2021-01-07T11:10:00Z</time>
      </trkpt>
      <trkpt lat="44.36537" lon="7.34635">
        <ele>1298.4</ele>
        <time>2021-01-07T11:10:01Z</time>
      </trkpt>
      <trkpt lat="44.36536" lon="7.34687">
        <ele>1293.59</ele>
        <time>2021-01-07T11:10:13Z</time>
      </trkpt>
      <trkpt lat="44.36543" lon="7.34744">
        <ele>1291.19</ele>
        <time>2021-01-07T11:10:26Z</time>
      </trkpt>
      <trkpt lat="44.36559" lon="7.3477">
        <ele>1292.15</ele>
        <time>2021-01-07T11:10:32Z</time>
      </trkpt>
      <trkpt lat="44.36571" lon="7.34829">
        <ele>1292.63</ele>
        <time>2021-01-07T11:10:44Z</time>
      </trkpt>
      <trkpt lat="44.3657" lon="7.34836">
        <ele>1292.63</ele>
        <time>2021-01-07T11:10:45Z</time>
      </trkpt>
      <trkpt lat="44.36569" lon="7.34842">
        <ele>1292.63</ele>
        <time>2021-01-07T11:10:46Z</time>
      </trkpt>
      <trkpt lat="44.36568" lon="7.34848">
        <ele>1292.63</ele>
        <time>2021-01-07T11:10:47Z</time>
      </trkpt>
      <trkpt lat="44.36577" lon="7.34899">
        <ele>1293.11</ele>
        <time>2021-01-07T11:10:58Z</time>
      </trkpt>
      <trkpt lat="44.36593" lon="7.34936">
        <ele>1292.15</ele>
        <time>2021-01-07T11:11:12Z</time>
      </trkpt>
      <trkpt lat="44.36596" lon="7.34957">
        <ele>1293.11</ele>
        <time>2021-01-07T11:11:24Z</time>
      </trkpt>
      <trkpt lat="44.36596" lon="7.34962">
        <ele>1293.59</ele>
        <time>2021-01-07T11:11:29Z</time>
      </trkpt>
      <trkpt lat="44.36596" lon="7.34963">
        <ele>1293.59</ele>
        <time>2021-01-07T11:11:30Z</time>
      </trkpt>
      <trkpt lat="44.36601" lon="7.34992">
        <ele>1293.59</ele>
        <time>2021-01-07T11:11:45Z</time>
      </trkpt>
      <trkpt lat="44.36618" lon="7.35043">
        <ele>1294.07</ele>
        <time>2021-01-07T11:12:01Z</time>
      </trkpt>
      <trkpt lat="44.36643" lon="7.35111">
        <ele>1295.03</ele>
        <time>2021-01-07T11:12:14Z</time>
      </trkpt>
      <trkpt lat="44.36664" lon="7.35159">
        <ele>1295.99</ele>
        <time>2021-01-07T11:12:29Z</time>
      </trkpt>
      <trkpt lat="44.36657" lon="7.35205">
        <ele>1292.63</ele>
        <time>2021-01-07T11:12:42Z</time>
      </trkpt>
      <trkpt lat="44.36645" lon="7.3524">
        <ele>1279.65</ele>
        <time>2021-01-07T11:12:53Z</time>
      </trkpt>
      <trkpt lat="44.36635" lon="7.35264">
        <ele>1279.17</ele>
        <time>2021-01-07T11:12:59Z</time>
      </trkpt>
      <trkpt lat="44.36627" lon="7.35299">
        <ele>1279.65</ele>
        <time>2021-01-07T11:13:05Z</time>
      </trkpt>
      <trkpt lat="44.3663" lon="7.35321">
        <ele>1279.65</ele>
        <time>2021-01-07T11:13:13Z</time>
      </trkpt>
      <trkpt lat="44.36632" lon="7.35321">
        <ele>1278.21</ele>
        <time>2021-01-07T11:13:22Z</time>
      </trkpt>
      <trkpt lat="44.36635" lon="7.35329">
        <ele>1276.77</ele>
        <time>2021-01-07T11:13:31Z</time>
      </trkpt>
      <trkpt lat="44.36632" lon="7.35363">
        <ele>1274.36</ele>
        <time>2021-01-07T11:13:39Z</time>
      </trkpt>
      <trkpt lat="44.36631" lon="7.35369">
        <ele>1273.4</ele>
        <time>2021-01-07T11:13:40Z</time>
      </trkpt>
      <trkpt lat="44.36629" lon="7.35372">
        <ele>1273.4</ele>
        <time>2021-01-07T11:13:41Z</time>
      </trkpt>
      <trkpt lat="44.3662" lon="7.35378">
        <ele>1271.96</ele>
        <time>2021-01-07T11:13:44Z</time>
      </trkpt>
      <trkpt lat="44.36617" lon="7.35377">
        <ele>1271.96</ele>
        <time>2021-01-07T11:13:45Z</time>
      </trkpt>
      <trkpt lat="44.36614" lon="7.35376">
        <ele>1271.48</ele>
        <time>2021-01-07T11:13:46Z</time>
      </trkpt>
      <trkpt lat="44.36594" lon="7.35354">
        <ele>1271.48</ele>
        <time>2021-01-07T11:13:56Z</time>
      </trkpt>
      <trkpt lat="44.36585" lon="7.35352">
        <ele>1271</ele>
        <time>2021-01-07T11:14:01Z</time>
      </trkpt>
      <trkpt lat="44.36583" lon="7.35355">
        <ele>1271</ele>
        <time>2021-01-07T11:14:02Z</time>
      </trkpt>
      <trkpt lat="44.36584" lon="7.35398">
        <ele>1271.48</ele>
        <time>2021-01-07T11:14:13Z</time>
      </trkpt>
      <trkpt lat="44.36587" lon="7.35397">
        <ele>1255.14</ele>
        <time>2021-01-07T11:14:21Z</time>
      </trkpt>
      <trkpt lat="44.36583" lon="7.35401">
        <ele>1246.97</ele>
        <time>2021-01-07T11:14:42Z</time>
      </trkpt>
      <trkpt lat="44.3658" lon="7.35401">
        <ele>1247.93</ele>
        <time>2021-01-07T11:14:52Z</time>
      </trkpt>
      <trkpt lat="44.36556" lon="7.35395">
        <ele>1246.97</ele>
        <time>2021-01-07T11:15:02Z</time>
      </trkpt>
      <trkpt lat="44.36551" lon="7.35397">
        <ele>1246.97</ele>
        <time>2021-01-07T11:15:03Z</time>
      </trkpt>
      <trkpt lat="44.36542" lon="7.35413">
        <ele>1243.6</ele>
        <time>2021-01-07T11:15:10Z</time>
      </trkpt>
      <trkpt lat="44.36534" lon="7.35416">
        <ele>1243.6</ele>
        <time>2021-01-07T11:15:15Z</time>
      </trkpt>
      <trkpt lat="44.36532" lon="7.35421">
        <ele>1243.12</ele>
        <time>2021-01-07T11:15:25Z</time>
      </trkpt>
      <trkpt lat="44.36532" lon="7.35427">
        <ele>1242.64</ele>
        <time>2021-01-07T11:15:35Z</time>
      </trkpt>
      <trkpt lat="44.36532" lon="7.35429">
        <ele>1243.12</ele>
        <time>2021-01-07T11:15:41Z</time>
      </trkpt>
      <trkpt lat="44.36531" lon="7.35429">
        <ele>1243.12</ele>
        <time>2021-01-07T11:15:42Z</time>
      </trkpt>
      <trkpt lat="44.36523" lon="7.35432">
        <ele>1243.6</ele>
        <time>2021-01-07T11:15:51Z</time>
      </trkpt>
      <trkpt lat="44.36521" lon="7.35435">
        <ele>1243.6</ele>
        <time>2021-01-07T11:15:52Z</time>
      </trkpt>
      <trkpt lat="44.36525" lon="7.35448">
        <ele>1243.6</ele>
        <time>2021-01-07T11:15:57Z</time>
      </trkpt>
      <trkpt lat="44.36519" lon="7.35465">
        <ele>1244.56</ele>
        <time>2021-01-07T11:16:01Z</time>
      </trkpt>
      <trkpt lat="44.36507" lon="7.35469">
        <ele>1244.56</ele>
        <time>2021-01-07T11:16:04Z</time>
      </trkpt>
      <trkpt lat="44.365" lon="7.35465">
        <ele>1245.04</ele>
        <time>2021-01-07T11:16:06Z</time>
      </trkpt>
      <trkpt lat="44.36495" lon="7.35463">
        <ele>1245.04</ele>
        <time>2021-01-07T11:16:07Z</time>
      </trkpt>
      <trkpt lat="44.36491" lon="7.35464">
        <ele>1245.04</ele>
        <time>2021-01-07T11:16:08Z</time>
      </trkpt>
      <trkpt lat="44.36484" lon="7.35483">
        <ele>1245.04</ele>
        <time>2021-01-07T11:16:13Z</time>
      </trkpt>
      <trkpt lat="44.36478" lon="7.35516">
        <ele>1235.91</ele>
        <time>2021-01-07T11:16:21Z</time>
      </trkpt>
      <trkpt lat="44.36474" lon="7.3552">
        <ele>1235.91</ele>
        <time>2021-01-07T11:16:23Z</time>
      </trkpt>
      <trkpt lat="44.36471" lon="7.35522">
        <ele>1232.55</ele>
        <time>2021-01-07T11:16:24Z</time>
      </trkpt>
      <trkpt lat="44.36466" lon="7.35526">
        <ele>1232.07</ele>
        <time>2021-01-07T11:16:26Z</time>
      </trkpt>
      <trkpt lat="44.36466" lon="7.35531">
        <ele>1227.26</ele>
        <time>2021-01-07T11:16:28Z</time>
      </trkpt>
      <trkpt lat="44.36464" lon="7.35532">
        <ele>1227.26</ele>
        <time>2021-01-07T11:16:29Z</time>
      </trkpt>
      <trkpt lat="44.36462" lon="7.35531">
        <ele>1227.26</ele>
        <time>2021-01-07T11:16:30Z</time>
      </trkpt>
      <trkpt lat="44.3646" lon="7.35533">
        <ele>1227.26</ele>
        <time>2021-01-07T11:16:31Z</time>
      </trkpt>
      <trkpt lat="44.36457" lon="7.35535">
        <ele>1227.74</ele>
        <time>2021-01-07T11:16:41Z</time>
      </trkpt>
      <trkpt lat="44.36455" lon="7.35533">
        <ele>1227.74</ele>
        <time>2021-01-07T11:16:43Z</time>
      </trkpt>
      <trkpt lat="44.36453" lon="7.3553">
        <ele>1227.74</ele>
        <time>2021-01-07T11:16:44Z</time>
      </trkpt>
      <trkpt lat="44.36441" lon="7.3551">
        <ele>1228.7</ele>
        <time>2021-01-07T11:16:49Z</time>
      </trkpt>
      <trkpt lat="44.36434" lon="7.3549">
        <ele>1229.66</ele>
        <time>2021-01-07T11:16:57Z</time>
      </trkpt>
      <trkpt lat="44.36433" lon="7.35489">
        <ele>1229.66</ele>
        <time>2021-01-07T11:16:58Z</time>
      </trkpt>
      <trkpt lat="44.36413" lon="7.35466">
        <ele>1230.62</ele>
        <time>2021-01-07T11:17:07Z</time>
      </trkpt>
      <trkpt lat="44.36409" lon="7.3547">
        <ele>1230.62</ele>
        <time>2021-01-07T11:17:09Z</time>
      </trkpt>
      <trkpt lat="44.36404" lon="7.35495">
        <ele>1231.59</ele>
        <time>2021-01-07T11:17:16Z</time>
      </trkpt>
      <trkpt lat="44.36397" lon="7.35505">
        <ele>1231.59</ele>
        <time>2021-01-07T11:17:20Z</time>
      </trkpt>
      <trkpt lat="44.36397" lon="7.35508">
        <ele>1232.07</ele>
        <time>2021-01-07T11:17:21Z</time>
      </trkpt>
      <trkpt lat="44.36397" lon="7.35513">
        <ele>1232.07</ele>
        <time>2021-01-07T11:17:22Z</time>
      </trkpt>
      <trkpt lat="44.36396" lon="7.35517">
        <ele>1232.07</ele>
        <time>2021-01-07T11:17:23Z</time>
      </trkpt>
      <trkpt lat="44.36396" lon="7.35532">
        <ele>1232.55</ele>
        <time>2021-01-07T11:17:31Z</time>
      </trkpt>
      <trkpt lat="44.36397" lon="7.35535">
        <ele>1233.03</ele>
        <time>2021-01-07T11:17:33Z</time>
      </trkpt>
      <trkpt lat="44.36396" lon="7.35537">
        <ele>1233.03</ele>
        <time>2021-01-07T11:17:35Z</time>
      </trkpt>
      <trkpt lat="44.36395" lon="7.35548">
        <ele>1233.51</ele>
        <time>2021-01-07T11:17:37Z</time>
      </trkpt>
      <trkpt lat="44.36395" lon="7.35563">
        <ele>1233.51</ele>
        <time>2021-01-07T11:17:39Z</time>
      </trkpt>
      <trkpt lat="44.36395" lon="7.3557">
        <ele>1233.51</ele>
        <time>2021-01-07T11:17:40Z</time>
      </trkpt>
      <trkpt lat="44.36395" lon="7.35575">
        <ele>1233.51</ele>
        <time>2021-01-07T11:17:41Z</time>
      </trkpt>
      <trkpt lat="44.36395" lon="7.35579">
        <ele>1233.03</ele>
        <time>2021-01-07T11:17:42Z</time>
      </trkpt>
      <trkpt lat="44.36395" lon="7.35582">
        <ele>1233.03</ele>
        <time>2021-01-07T11:17:43Z</time>
      </trkpt>
      <trkpt lat="44.36396" lon="7.356">
        <ele>1229.66</ele>
        <time>2021-01-07T11:17:50Z</time>
      </trkpt>
      <trkpt lat="44.36391" lon="7.35605">
        <ele>1226.78</ele>
        <time>2021-01-07T11:17:54Z</time>
      </trkpt>
      <trkpt lat="44.36367" lon="7.35575">
        <ele>1224.86</ele>
        <time>2021-01-07T11:18:05Z</time>
      </trkpt>
      <trkpt lat="44.36361" lon="7.35563">
        <ele>1219.57</ele>
        <time>2021-01-07T11:18:16Z</time>
      </trkpt>
      <trkpt lat="44.3636" lon="7.35563">
        <ele>1214.28</ele>
        <time>2021-01-07T11:18:30Z</time>
      </trkpt>
      <trkpt lat="44.36358" lon="7.35562">
        <ele>1213.32</ele>
        <time>2021-01-07T11:18:34Z</time>
      </trkpt>
      <trkpt lat="44.36356" lon="7.3556">
        <ele>1207.07</ele>
        <time>2021-01-07T11:18:35Z</time>
      </trkpt>
      <trkpt lat="44.36343" lon="7.35545">
        <ele>1179.19</ele>
        <time>2021-01-07T11:18:43Z</time>
      </trkpt>
      <trkpt lat="44.36342" lon="7.35543">
        <ele>1178.71</ele>
        <time>2021-01-07T11:18:44Z</time>
      </trkpt>
      <trkpt lat="44.36334" lon="7.35547">
        <ele>1175.35</ele>
        <time>2021-01-07T11:18:48Z</time>
      </trkpt>
      <trkpt lat="44.36331" lon="7.35545">
        <ele>1175.35</ele>
        <time>2021-01-07T11:18:49Z</time>
      </trkpt>
      <trkpt lat="44.36328" lon="7.3554">
        <ele>1169.58</ele>
        <time>2021-01-07T11:18:56Z</time>
      </trkpt>
      <trkpt lat="44.36326" lon="7.35538">
        <ele>1166.7</ele>
        <time>2021-01-07T11:19:00Z</time>
      </trkpt>
      <trkpt lat="44.36323" lon="7.35537">
        <ele>1166.7</ele>
        <time>2021-01-07T11:19:01Z</time>
      </trkpt>
      <trkpt lat="44.36316" lon="7.35533">
        <ele>1166.7</ele>
        <time>2021-01-07T11:19:07Z</time>
      </trkpt>
      <trkpt lat="44.36316" lon="7.35536">
        <ele>1166.7</ele>
        <time>2021-01-07T11:19:09Z</time>
      </trkpt>
      <trkpt lat="44.36317" lon="7.35546">
        <ele>1167.18</ele>
        <time>2021-01-07T11:19:15Z</time>
      </trkpt>
      <trkpt lat="44.36323" lon="7.35576">
        <ele>1168.14</ele>
        <time>2021-01-07T11:19:25Z</time>
      </trkpt>
      <trkpt lat="44.36327" lon="7.35582">
        <ele>1150.35</ele>
        <time>2021-01-07T11:19:33Z</time>
      </trkpt>
      <trkpt lat="44.36325" lon="7.35582">
        <ele>1146.03</ele>
        <time>2021-01-07T11:19:47Z</time>
      </trkpt>
      <trkpt lat="44.36326" lon="7.35582">
        <ele>1140.26</ele>
        <time>2021-01-07T11:20:03Z</time>
      </trkpt>
      <trkpt lat="44.36322" lon="7.35571">
        <ele>1137.86</ele>
        <time>2021-01-07T11:20:12Z</time>
      </trkpt>
      <trkpt lat="44.36318" lon="7.35566">
        <ele>1134.97</ele>
        <time>2021-01-07T11:20:24Z</time>
      </trkpt>
      <trkpt lat="44.36316" lon="7.35565">
        <ele>1133.05</ele>
        <time>2021-01-07T11:20:37Z</time>
      </trkpt>
      <trkpt lat="44.36315" lon="7.35565">
        <ele>1132.57</ele>
        <time>2021-01-07T11:20:54Z</time>
      </trkpt>
      <trkpt lat="44.36314" lon="7.35566">
        <ele>1130.65</ele>
        <time>2021-01-07T11:21:16Z</time>
      </trkpt>
      <trkpt lat="44.36314" lon="7.35566">
        <ele>1131.13</ele>
        <time>2021-01-07T11:21:31Z</time>
      </trkpt>
      <trkpt lat="44.36315" lon="7.35565">
        <ele>1131.13</ele>
        <time>2021-01-07T11:21:45Z</time>
      </trkpt>
      <trkpt lat="44.36315" lon="7.35568">
        <ele>1135.45</ele>
        <time>2021-01-07T11:22:13Z</time>
      </trkpt>
      <trkpt lat="44.36313" lon="7.35568">
        <ele>1137.38</ele>
        <time>2021-01-07T11:22:42Z</time>
      </trkpt>
      <trkpt lat="44.36313" lon="7.35566">
        <ele>1140.74</ele>
        <time>2021-01-07T11:23:10Z</time>
      </trkpt>
      <trkpt lat="44.36314" lon="7.35565">
        <ele>1130.17</ele>
        <time>2021-01-07T11:23:34Z</time>
      </trkpt>
      <trkpt lat="44.36315" lon="7.35567">
        <ele>1128.73</ele>
        <time>2021-01-07T11:23:57Z</time>
      </trkpt>
      <trkpt lat="44.36314" lon="7.35568">
        <ele>1133.05</ele>
        <time>2021-01-07T11:24:22Z</time>
      </trkpt>
      <trkpt lat="44.36315" lon="7.35565">
        <ele>1139.3</ele>
        <time>2021-01-07T11:24:45Z</time>
      </trkpt>
      <trkpt lat="44.36313" lon="7.35566">
        <ele>1145.55</ele>
        <time>2021-01-07T11:25:17Z</time>
      </trkpt>
      <trkpt lat="44.36312" lon="7.35567">
        <ele>1147.95</ele>
        <time>2021-01-07T11:25:53Z</time>
      </trkpt>
      <trkpt lat="44.36315" lon="7.35568">
        <ele>1149.87</ele>
        <time>2021-01-07T11:26:19Z</time>
      </trkpt>
      <trkpt lat="44.36315" lon="7.35568">
        <ele>1151.32</ele>
        <time>2021-01-07T11:26:51Z</time>
      </trkpt>
      <trkpt lat="44.36314" lon="7.35562">
        <ele>1109.02</ele>
        <time>2021-01-07T11:27:20Z</time>
      </trkpt>
      <trkpt lat="44.36313" lon="7.35564">
        <ele>1112.38</ele>
        <time>2021-01-07T11:27:39Z</time>
      </trkpt>
      <trkpt lat="44.36315" lon="7.35564">
        <ele>1114.79</ele>
        <time>2021-01-07T11:28:00Z</time>
      </trkpt>
      <trkpt lat="44.36315" lon="7.35562">
        <ele>1118.15</ele>
        <time>2021-01-07T11:28:24Z</time>
      </trkpt>
      <trkpt lat="44.36316" lon="7.3556">
        <ele>1117.19</ele>
        <time>2021-01-07T11:28:34Z</time>
      </trkpt>
      <trkpt lat="44.36313" lon="7.35558">
        <ele>1118.15</ele>
        <time>2021-01-07T11:28:48Z</time>
      </trkpt>
      <trkpt lat="44.36314" lon="7.35561">
        <ele>1116.23</ele>
        <time>2021-01-07T11:29:04Z</time>
      </trkpt>
      <trkpt lat="44.36318" lon="7.35563">
        <ele>1117.19</ele>
        <time>2021-01-07T11:29:42Z</time>
      </trkpt>
      <trkpt lat="44.36317" lon="7.35562">
        <ele>1117.67</ele>
        <time>2021-01-07T11:30:16Z</time>
      </trkpt>
      <trkpt lat="44.36315" lon="7.35559">
        <ele>1114.79</ele>
        <time>2021-01-07T11:30:55Z</time>
      </trkpt>
      <trkpt lat="44.36314" lon="7.35559">
        <ele>1117.19</ele>
        <time>2021-01-07T11:31:23Z</time>
      </trkpt>
      <trkpt lat="44.36312" lon="7.35558">
        <ele>1117.19</ele>
        <time>2021-01-07T11:31:46Z</time>
      </trkpt>
      <trkpt lat="44.36312" lon="7.35556">
        <ele>1116.71</ele>
        <time>2021-01-07T11:31:47Z</time>
      </trkpt>
      <trkpt lat="44.36312" lon="7.35554">
        <ele>1116.71</ele>
        <time>2021-01-07T11:31:48Z</time>
      </trkpt>
      <trkpt lat="44.36311" lon="7.35551">
        <ele>1116.23</ele>
        <time>2021-01-07T11:31:49Z</time>
      </trkpt>
      <trkpt lat="44.3631" lon="7.35548">
        <ele>1116.23</ele>
        <time>2021-01-07T11:31:50Z</time>
      </trkpt>
      <trkpt lat="44.36308" lon="7.35545">
        <ele>1115.75</ele>
        <time>2021-01-07T11:31:51Z</time>
      </trkpt>
      <trkpt lat="44.36286" lon="7.35497">
        <ele>1113.82</ele>
        <time>2021-01-07T11:32:02Z</time>
      </trkpt>
      <trkpt lat="44.36284" lon="7.35485">
        <ele>1113.82</ele>
        <time>2021-01-07T11:32:04Z</time>
      </trkpt>
      <trkpt lat="44.36284" lon="7.3548">
        <ele>1113.82</ele>
        <time>2021-01-07T11:32:05Z</time>
      </trkpt>
      <trkpt lat="44.36283" lon="7.35475">
        <ele>1113.82</ele>
        <time>2021-01-07T11:32:06Z</time>
      </trkpt>
      <trkpt lat="44.36284" lon="7.3547">
        <ele>1113.82</ele>
        <time>2021-01-07T11:32:07Z</time>
      </trkpt>
      <trkpt lat="44.36284" lon="7.35464">
        <ele>1113.34</ele>
        <time>2021-01-07T11:32:08Z</time>
      </trkpt>
      <trkpt lat="44.36285" lon="7.35459">
        <ele>1113.34</ele>
        <time>2021-01-07T11:32:09Z</time>
      </trkpt>
      <trkpt lat="44.36281" lon="7.35438">
        <ele>1112.38</ele>
        <time>2021-01-07T11:32:15Z</time>
      </trkpt>
      <trkpt lat="44.36279" lon="7.3544">
        <ele>1111.9</ele>
        <time>2021-01-07T11:32:16Z</time>
      </trkpt>
      <trkpt lat="44.36276" lon="7.35444">
        <ele>1111.42</ele>
        <time>2021-01-07T11:32:17Z</time>
      </trkpt>
      <trkpt lat="44.36275" lon="7.35448">
        <ele>1110.94</ele>
        <time>2021-01-07T11:32:18Z</time>
      </trkpt>
      <trkpt lat="44.36272" lon="7.35453">
        <ele>1109.98</ele>
        <time>2021-01-07T11:32:19Z</time>
      </trkpt>
      <trkpt lat="44.3627" lon="7.35463">
        <ele>1109.5</ele>
        <time>2021-01-07T11:32:20Z</time>
      </trkpt>
      <trkpt lat="44.36269" lon="7.35471">
        <ele>1109.02</ele>
        <time>2021-01-07T11:32:21Z</time>
      </trkpt>
    </trkseg>
  </trk>
</gpx>